<?xml version="1.0" encoding="UTF-8" standalone="no" ?>
<gpx xmlns="http://www.topografix.com/GPX/1/1" xmlns:xsi="http://www.w3.org/2001/XMLSchema-instance" xsi:schemaLocation="http://www.topografix.com/GPX/1/1 http://www.topografix.com/GPX/1/1/gpx.xsd" version="1.1" creator="VisuGPX - https://www.visugpx.com">
  <metadata>
    <name>La Tête du Danay depuis Plattuy</name>
    <desc><![CDATA[Course faite par beau temps (22°).]]></desc>
  </metadata>
  <trk>
    <name><![CDATA[Untitled]]></name>
    <trkseg>
      <trkpt lat="45.91288" lon="6.44943">
        <ele>1317.4000244141</ele>
        <time>2013-08-21T15:14:57.000Z</time>
      </trkpt>
      <trkpt lat="45.91285" lon="6.44925">
        <ele>1317.5999755859</ele>
        <time>2013-08-21T15:15:01.000Z</time>
      </trkpt>
      <trkpt lat="45.91281" lon="6.44914">
        <ele>1316.8000488281</ele>
        <time>2013-08-21T15:15:04.000Z</time>
      </trkpt>
      <trkpt lat="45.91272" lon="6.44903">
        <ele>1313.8000488281</ele>
        <time>2013-08-21T15:15:08.000Z</time>
      </trkpt>
      <trkpt lat="45.91269" lon="6.44886">
        <ele>1314.5999755859</ele>
        <time>2013-08-21T15:15:12.000Z</time>
      </trkpt>
      <trkpt lat="45.91264" lon="6.44866">
        <ele>1314.1999511719</ele>
        <time>2013-08-21T15:15:17.000Z</time>
      </trkpt>
      <trkpt lat="45.91258" lon="6.44842">
        <ele>1314</ele>
        <time>2013-08-21T15:15:23.000Z</time>
      </trkpt>
      <trkpt lat="45.91252" lon="6.44825">
        <ele>1313.1999511719</ele>
        <time>2013-08-21T15:15:28.000Z</time>
      </trkpt>
      <trkpt lat="45.91244" lon="6.448">
        <ele>1311.4000244141</ele>
        <time>2013-08-21T15:15:35.000Z</time>
      </trkpt>
      <trkpt lat="45.91239" lon="6.44784">
        <ele>1310.1999511719</ele>
        <time>2013-08-21T15:15:40.000Z</time>
      </trkpt>
      <trkpt lat="45.91231" lon="6.44764">
        <ele>1308.8000488281</ele>
        <time>2013-08-21T15:15:46.000Z</time>
      </trkpt>
      <trkpt lat="45.9123" lon="6.44761">
        <ele>1308.8000488281</ele>
        <time>2013-08-21T15:15:49.000Z</time>
      </trkpt>
      <trkpt lat="45.9123" lon="6.44762">
        <ele>1308.8000488281</ele>
        <time>2013-08-21T15:15:56.000Z</time>
      </trkpt>
      <trkpt lat="45.91239" lon="6.44762">
        <ele>1311.8000488281</ele>
        <time>2013-08-21T15:16:00.000Z</time>
      </trkpt>
      <trkpt lat="45.9125" lon="6.44761">
        <ele>1315.5999755859</ele>
        <time>2013-08-21T15:16:06.000Z</time>
      </trkpt>
      <trkpt lat="45.91256" lon="6.44762">
        <ele>1317.5999755859</ele>
        <time>2013-08-21T15:16:11.000Z</time>
      </trkpt>
      <trkpt lat="45.91261" lon="6.44765">
        <ele>1319.4000244141</ele>
        <time>2013-08-21T15:16:16.000Z</time>
      </trkpt>
      <trkpt lat="45.91267" lon="6.4477">
        <ele>1321.5999755859</ele>
        <time>2013-08-21T15:16:21.000Z</time>
      </trkpt>
      <trkpt lat="45.91273" lon="6.44774">
        <ele>1323.8000488281</ele>
        <time>2013-08-21T15:16:27.000Z</time>
      </trkpt>
      <trkpt lat="45.91275" lon="6.44772">
        <ele>1324.5999755859</ele>
        <time>2013-08-21T15:16:29.000Z</time>
      </trkpt>
      <trkpt lat="45.91277" lon="6.44771">
        <ele>1325.5999755859</ele>
        <time>2013-08-21T15:16:31.000Z</time>
      </trkpt>
      <trkpt lat="45.91286" lon="6.44765">
        <ele>1329</ele>
        <time>2013-08-21T15:16:38.000Z</time>
      </trkpt>
      <trkpt lat="45.9129" lon="6.44764">
        <ele>1330.5999755859</ele>
        <time>2013-08-21T15:16:41.000Z</time>
      </trkpt>
      <trkpt lat="45.91297" lon="6.4476">
        <ele>1333.4000244141</ele>
        <time>2013-08-21T15:16:48.000Z</time>
      </trkpt>
      <trkpt lat="45.913" lon="6.44758">
        <ele>1334.8000488281</ele>
        <time>2013-08-21T15:16:50.000Z</time>
      </trkpt>
      <trkpt lat="45.91304" lon="6.44757">
        <ele>1336.5999755859</ele>
        <time>2013-08-21T15:16:54.000Z</time>
      </trkpt>
      <trkpt lat="45.9131" lon="6.44759">
        <ele>1338.8000488281</ele>
        <time>2013-08-21T15:16:59.000Z</time>
      </trkpt>
      <trkpt lat="45.91316" lon="6.44758">
        <ele>1340.8000488281</ele>
        <time>2013-08-21T15:17:06.000Z</time>
      </trkpt>
      <trkpt lat="45.91321" lon="6.44761">
        <ele>1343</ele>
        <time>2013-08-21T15:17:12.000Z</time>
      </trkpt>
      <trkpt lat="45.91327" lon="6.44762">
        <ele>1345.4000244141</ele>
        <time>2013-08-21T15:17:17.000Z</time>
      </trkpt>
      <trkpt lat="45.91332" lon="6.44762">
        <ele>1347.1999511719</ele>
        <time>2013-08-21T15:17:21.000Z</time>
      </trkpt>
      <trkpt lat="45.91336" lon="6.4476">
        <ele>1348.1999511719</ele>
        <time>2013-08-21T15:17:25.000Z</time>
      </trkpt>
      <trkpt lat="45.91339" lon="6.44757">
        <ele>1349.1999511719</ele>
        <time>2013-08-21T15:17:29.000Z</time>
      </trkpt>
      <trkpt lat="45.91345" lon="6.44751">
        <ele>1351</ele>
        <time>2013-08-21T15:17:35.000Z</time>
      </trkpt>
      <trkpt lat="45.91347" lon="6.44748">
        <ele>1351.4000244141</ele>
        <time>2013-08-21T15:17:37.000Z</time>
      </trkpt>
      <trkpt lat="45.91349" lon="6.44746">
        <ele>1351.8000488281</ele>
        <time>2013-08-21T15:17:39.000Z</time>
      </trkpt>
      <trkpt lat="45.91357" lon="6.44741">
        <ele>1353.5999755859</ele>
        <time>2013-08-21T15:17:45.000Z</time>
      </trkpt>
      <trkpt lat="45.91358" lon="6.4474">
        <ele>1354</ele>
        <time>2013-08-21T15:17:46.000Z</time>
      </trkpt>
      <trkpt lat="45.91361" lon="6.44739">
        <ele>1354.5999755859</ele>
        <time>2013-08-21T15:17:48.000Z</time>
      </trkpt>
      <trkpt lat="45.91366" lon="6.44733">
        <ele>1355.8000488281</ele>
        <time>2013-08-21T15:17:53.000Z</time>
      </trkpt>
      <trkpt lat="45.91368" lon="6.44726">
        <ele>1356.4000244141</ele>
        <time>2013-08-21T15:17:58.000Z</time>
      </trkpt>
      <trkpt lat="45.91375" lon="6.4472">
        <ele>1358</ele>
        <time>2013-08-21T15:18:02.000Z</time>
      </trkpt>
      <trkpt lat="45.91376" lon="6.44719">
        <ele>1358.4000244141</ele>
        <time>2013-08-21T15:18:03.000Z</time>
      </trkpt>
      <trkpt lat="45.91385" lon="6.4471">
        <ele>1360.8000488281</ele>
        <time>2013-08-21T15:18:11.000Z</time>
      </trkpt>
      <trkpt lat="45.9139" lon="6.44702">
        <ele>1362</ele>
        <time>2013-08-21T15:18:17.000Z</time>
      </trkpt>
      <trkpt lat="45.91396" lon="6.44694">
        <ele>1363.8000488281</ele>
        <time>2013-08-21T15:18:24.000Z</time>
      </trkpt>
      <trkpt lat="45.914" lon="6.44686">
        <ele>1364.8000488281</ele>
        <time>2013-08-21T15:18:30.000Z</time>
      </trkpt>
      <trkpt lat="45.91403" lon="6.44679">
        <ele>1365.8000488281</ele>
        <time>2013-08-21T15:18:36.000Z</time>
      </trkpt>
      <trkpt lat="45.91404" lon="6.44678">
        <ele>1366</ele>
        <time>2013-08-21T15:18:37.000Z</time>
      </trkpt>
      <trkpt lat="45.91406" lon="6.44668">
        <ele>1366.8000488281</ele>
        <time>2013-08-21T15:18:43.000Z</time>
      </trkpt>
      <trkpt lat="45.9141" lon="6.4466">
        <ele>1367.8000488281</ele>
        <time>2013-08-21T15:18:48.000Z</time>
      </trkpt>
      <trkpt lat="45.91413" lon="6.44656">
        <ele>1368.1999511719</ele>
        <time>2013-08-21T15:18:50.000Z</time>
      </trkpt>
      <trkpt lat="45.91419" lon="6.44647">
        <ele>1369.8000488281</ele>
        <time>2013-08-21T15:18:56.000Z</time>
      </trkpt>
      <trkpt lat="45.91423" lon="6.44644">
        <ele>1370.5999755859</ele>
        <time>2013-08-21T15:18:59.000Z</time>
      </trkpt>
      <trkpt lat="45.91431" lon="6.44646">
        <ele>1372.8000488281</ele>
        <time>2013-08-21T15:19:04.000Z</time>
      </trkpt>
      <trkpt lat="45.91438" lon="6.44647">
        <ele>1374.4000244141</ele>
        <time>2013-08-21T15:19:09.000Z</time>
      </trkpt>
      <trkpt lat="45.91442" lon="6.44649">
        <ele>1375.4000244141</ele>
        <time>2013-08-21T15:19:12.000Z</time>
      </trkpt>
      <trkpt lat="45.91445" lon="6.4465">
        <ele>1376.1999511719</ele>
        <time>2013-08-21T15:19:15.000Z</time>
      </trkpt>
      <trkpt lat="45.91453" lon="6.44652">
        <ele>1378.1999511719</ele>
        <time>2013-08-21T15:19:21.000Z</time>
      </trkpt>
      <trkpt lat="45.91462" lon="6.4465">
        <ele>1380.4000244141</ele>
        <time>2013-08-21T15:19:28.000Z</time>
      </trkpt>
      <trkpt lat="45.91465" lon="6.44645">
        <ele>1381.1999511719</ele>
        <time>2013-08-21T15:19:31.000Z</time>
      </trkpt>
      <trkpt lat="45.91472" lon="6.44652">
        <ele>1383</ele>
        <time>2013-08-21T15:19:37.000Z</time>
      </trkpt>
      <trkpt lat="45.91474" lon="6.44656">
        <ele>1383.4000244141</ele>
        <time>2013-08-21T15:19:38.000Z</time>
      </trkpt>
      <trkpt lat="45.91483" lon="6.44669">
        <ele>1386</ele>
        <time>2013-08-21T15:19:45.000Z</time>
      </trkpt>
      <trkpt lat="45.91488" lon="6.44676">
        <ele>1387.1999511719</ele>
        <time>2013-08-21T15:19:50.000Z</time>
      </trkpt>
      <trkpt lat="45.91491" lon="6.44681">
        <ele>1388</ele>
        <time>2013-08-21T15:19:53.000Z</time>
      </trkpt>
      <trkpt lat="45.91495" lon="6.44692">
        <ele>1389</ele>
        <time>2013-08-21T15:19:58.000Z</time>
      </trkpt>
      <trkpt lat="45.91501" lon="6.44703">
        <ele>1390.8000488281</ele>
        <time>2013-08-21T15:20:04.000Z</time>
      </trkpt>
      <trkpt lat="45.91503" lon="6.4471">
        <ele>1391.8000488281</ele>
        <time>2013-08-21T15:20:08.000Z</time>
      </trkpt>
      <trkpt lat="45.91508" lon="6.44721">
        <ele>1393.8000488281</ele>
        <time>2013-08-21T15:20:14.000Z</time>
      </trkpt>
      <trkpt lat="45.9151" lon="6.44727">
        <ele>1395</ele>
        <time>2013-08-21T15:20:17.000Z</time>
      </trkpt>
      <trkpt lat="45.91513" lon="6.44741">
        <ele>1396.5999755859</ele>
        <time>2013-08-21T15:20:23.000Z</time>
      </trkpt>
      <trkpt lat="45.91512" lon="6.44763">
        <ele>1397.5999755859</ele>
        <time>2013-08-21T15:20:29.000Z</time>
      </trkpt>
      <trkpt lat="45.9151" lon="6.44784">
        <ele>1397.4000244141</ele>
        <time>2013-08-21T15:20:35.000Z</time>
      </trkpt>
      <trkpt lat="45.91507" lon="6.44801">
        <ele>1397.1999511719</ele>
        <time>2013-08-21T15:20:40.000Z</time>
      </trkpt>
      <trkpt lat="45.91503" lon="6.44818">
        <ele>1396.4000244141</ele>
        <time>2013-08-21T15:20:45.000Z</time>
      </trkpt>
      <trkpt lat="45.91497" lon="6.44832">
        <ele>1395</ele>
        <time>2013-08-21T15:20:50.000Z</time>
      </trkpt>
      <trkpt lat="45.91493" lon="6.44845">
        <ele>1393.4000244141</ele>
        <time>2013-08-21T15:20:55.000Z</time>
      </trkpt>
      <trkpt lat="45.9149" lon="6.44864">
        <ele>1391.8000488281</ele>
        <time>2013-08-21T15:21:00.000Z</time>
      </trkpt>
      <trkpt lat="45.91487" lon="6.44885">
        <ele>1390.5999755859</ele>
        <time>2013-08-21T15:21:06.000Z</time>
      </trkpt>
      <trkpt lat="45.91482" lon="6.44903">
        <ele>1388.8000488281</ele>
        <time>2013-08-21T15:21:11.000Z</time>
      </trkpt>
      <trkpt lat="45.91477" lon="6.44924">
        <ele>1386.8000488281</ele>
        <time>2013-08-21T15:21:17.000Z</time>
      </trkpt>
      <trkpt lat="45.91475" lon="6.4494">
        <ele>1385.8000488281</ele>
        <time>2013-08-21T15:21:22.000Z</time>
      </trkpt>
      <trkpt lat="45.91475" lon="6.44952">
        <ele>1385.4000244141</ele>
        <time>2013-08-21T15:21:27.000Z</time>
      </trkpt>
      <trkpt lat="45.91476" lon="6.44958">
        <ele>1385.5999755859</ele>
        <time>2013-08-21T15:21:30.000Z</time>
      </trkpt>
      <trkpt lat="45.91481" lon="6.44969">
        <ele>1387.1999511719</ele>
        <time>2013-08-21T15:21:36.000Z</time>
      </trkpt>
      <trkpt lat="45.91485" lon="6.44977">
        <ele>1388.4000244141</ele>
        <time>2013-08-21T15:21:41.000Z</time>
      </trkpt>
      <trkpt lat="45.9149" lon="6.44987">
        <ele>1390</ele>
        <time>2013-08-21T15:21:47.000Z</time>
      </trkpt>
      <trkpt lat="45.9149" lon="6.44982">
        <ele>1389.8000488281</ele>
        <time>2013-08-21T15:21:53.000Z</time>
      </trkpt>
      <trkpt lat="45.91491" lon="6.44985">
        <ele>1390</ele>
        <time>2013-08-21T15:22:02.000Z</time>
      </trkpt>
      <trkpt lat="45.91494" lon="6.4499">
        <ele>1391.1999511719</ele>
        <time>2013-08-21T15:22:05.000Z</time>
      </trkpt>
      <trkpt lat="45.91504" lon="6.44997">
        <ele>1394</ele>
        <time>2013-08-21T15:22:09.000Z</time>
      </trkpt>
      <trkpt lat="45.91518" lon="6.45006">
        <ele>1398.1999511719</ele>
        <time>2013-08-21T15:22:14.000Z</time>
      </trkpt>
      <trkpt lat="45.91526" lon="6.45012">
        <ele>1401</ele>
        <time>2013-08-21T15:22:17.000Z</time>
      </trkpt>
      <trkpt lat="45.9153" lon="6.45021">
        <ele>1402.8000488281</ele>
        <time>2013-08-21T15:22:20.000Z</time>
      </trkpt>
      <trkpt lat="45.91536" lon="6.45036">
        <ele>1405.5999755859</ele>
        <time>2013-08-21T15:22:24.000Z</time>
      </trkpt>
      <trkpt lat="45.91538" lon="6.45053">
        <ele>1407.4000244141</ele>
        <time>2013-08-21T15:22:28.000Z</time>
      </trkpt>
      <trkpt lat="45.91533" lon="6.45066">
        <ele>1406.1999511719</ele>
        <time>2013-08-21T15:22:32.000Z</time>
      </trkpt>
      <trkpt lat="45.91522" lon="6.45079">
        <ele>1402.8000488281</ele>
        <time>2013-08-21T15:22:37.000Z</time>
      </trkpt>
      <trkpt lat="45.9151" lon="6.45092">
        <ele>1399.8000488281</ele>
        <time>2013-08-21T15:22:43.000Z</time>
      </trkpt>
      <trkpt lat="45.91502" lon="6.45103">
        <ele>1398.4000244141</ele>
        <time>2013-08-21T15:22:48.000Z</time>
      </trkpt>
      <trkpt lat="45.91495" lon="6.45115">
        <ele>1397.4000244141</ele>
        <time>2013-08-21T15:22:53.000Z</time>
      </trkpt>
      <trkpt lat="45.9149" lon="6.45133">
        <ele>1397.4000244141</ele>
        <time>2013-08-21T15:22:59.000Z</time>
      </trkpt>
      <trkpt lat="45.91489" lon="6.45145">
        <ele>1399</ele>
        <time>2013-08-21T15:23:04.000Z</time>
      </trkpt>
      <trkpt lat="45.91489" lon="6.4516">
        <ele>1401.4000244141</ele>
        <time>2013-08-21T15:23:08.000Z</time>
      </trkpt>
      <trkpt lat="45.9149" lon="6.4518">
        <ele>1402.8000488281</ele>
        <time>2013-08-21T15:23:13.000Z</time>
      </trkpt>
      <trkpt lat="45.91491" lon="6.45203">
        <ele>1404</ele>
        <time>2013-08-21T15:23:19.000Z</time>
      </trkpt>
      <trkpt lat="45.91494" lon="6.45221">
        <ele>1405.5999755859</ele>
        <time>2013-08-21T15:23:24.000Z</time>
      </trkpt>
      <trkpt lat="45.91498" lon="6.45239">
        <ele>1408.1999511719</ele>
        <time>2013-08-21T15:23:29.000Z</time>
      </trkpt>
      <trkpt lat="45.91499" lon="6.45254">
        <ele>1408.4000244141</ele>
        <time>2013-08-21T15:23:33.000Z</time>
      </trkpt>
      <trkpt lat="45.91501" lon="6.45264">
        <ele>1407.5999755859</ele>
        <time>2013-08-21T15:23:36.000Z</time>
      </trkpt>
      <trkpt lat="45.91506" lon="6.45279">
        <ele>1406.8000488281</ele>
        <time>2013-08-21T15:23:40.000Z</time>
      </trkpt>
      <trkpt lat="45.91509" lon="6.45294">
        <ele>1405.1999511719</ele>
        <time>2013-08-21T15:23:45.000Z</time>
      </trkpt>
      <trkpt lat="45.91514" lon="6.45309">
        <ele>1404.5999755859</ele>
        <time>2013-08-21T15:23:49.000Z</time>
      </trkpt>
      <trkpt lat="45.91516" lon="6.45325">
        <ele>1402.5999755859</ele>
        <time>2013-08-21T15:23:53.000Z</time>
      </trkpt>
      <trkpt lat="45.91524" lon="6.4534">
        <ele>1403.4000244141</ele>
        <time>2013-08-21T15:23:58.000Z</time>
      </trkpt>
      <trkpt lat="45.91529" lon="6.45355">
        <ele>1402.8000488281</ele>
        <time>2013-08-21T15:24:03.000Z</time>
      </trkpt>
      <trkpt lat="45.91534" lon="6.45368">
        <ele>1402.5999755859</ele>
        <time>2013-08-21T15:24:07.000Z</time>
      </trkpt>
      <trkpt lat="45.91538" lon="6.45383">
        <ele>1401.5999755859</ele>
        <time>2013-08-21T15:24:12.000Z</time>
      </trkpt>
      <trkpt lat="45.91539" lon="6.45394">
        <ele>1399.8000488281</ele>
        <time>2013-08-21T15:24:15.000Z</time>
      </trkpt>
      <trkpt lat="45.91544" lon="6.45412">
        <ele>1398.5999755859</ele>
        <time>2013-08-21T15:24:20.000Z</time>
      </trkpt>
      <trkpt lat="45.9155" lon="6.4543">
        <ele>1399</ele>
        <time>2013-08-21T15:24:26.000Z</time>
      </trkpt>
      <trkpt lat="45.91551" lon="6.45439">
        <ele>1398.8000488281</ele>
        <time>2013-08-21T15:24:28.000Z</time>
      </trkpt>
      <trkpt lat="45.91549" lon="6.45452">
        <ele>1396.8000488281</ele>
        <time>2013-08-21T15:24:32.000Z</time>
      </trkpt>
      <trkpt lat="45.91548" lon="6.4547">
        <ele>1395</ele>
        <time>2013-08-21T15:24:38.000Z</time>
      </trkpt>
      <trkpt lat="45.9155" lon="6.45476">
        <ele>1395.1999511719</ele>
        <time>2013-08-21T15:24:40.000Z</time>
      </trkpt>
      <trkpt lat="45.91555" lon="6.45492">
        <ele>1395.8000488281</ele>
        <time>2013-08-21T15:24:45.000Z</time>
      </trkpt>
      <trkpt lat="45.91552" lon="6.45502">
        <ele>1394</ele>
        <time>2013-08-21T15:24:48.000Z</time>
      </trkpt>
      <trkpt lat="45.91543" lon="6.45523">
        <ele>1390</ele>
        <time>2013-08-21T15:24:55.000Z</time>
      </trkpt>
      <trkpt lat="45.91541" lon="6.45542">
        <ele>1388.5999755859</ele>
        <time>2013-08-21T15:25:00.000Z</time>
      </trkpt>
      <trkpt lat="45.9154" lon="6.45549">
        <ele>1388.1999511719</ele>
        <time>2013-08-21T15:25:02.000Z</time>
      </trkpt>
      <trkpt lat="45.91544" lon="6.45576">
        <ele>1389.5999755859</ele>
        <time>2013-08-21T15:25:09.000Z</time>
      </trkpt>
      <trkpt lat="45.91547" lon="6.45593">
        <ele>1390.5999755859</ele>
        <time>2013-08-21T15:25:14.000Z</time>
      </trkpt>
      <trkpt lat="45.91548" lon="6.45596">
        <ele>1390.8000488281</ele>
        <time>2013-08-21T15:25:15.000Z</time>
      </trkpt>
      <trkpt lat="45.91548" lon="6.45624">
        <ele>1389.5999755859</ele>
        <time>2013-08-21T15:25:23.000Z</time>
      </trkpt>
      <trkpt lat="45.91548" lon="6.45643">
        <ele>1389</ele>
        <time>2013-08-21T15:25:28.000Z</time>
      </trkpt>
      <trkpt lat="45.91545" lon="6.4566">
        <ele>1387</ele>
        <time>2013-08-21T15:25:33.000Z</time>
      </trkpt>
      <trkpt lat="45.91543" lon="6.45684">
        <ele>1385.8000488281</ele>
        <time>2013-08-21T15:25:40.000Z</time>
      </trkpt>
      <trkpt lat="45.91542" lon="6.45709">
        <ele>1385.1999511719</ele>
        <time>2013-08-21T15:25:47.000Z</time>
      </trkpt>
      <trkpt lat="45.91541" lon="6.45727">
        <ele>1384.8000488281</ele>
        <time>2013-08-21T15:25:53.000Z</time>
      </trkpt>
      <trkpt lat="45.91541" lon="6.45744">
        <ele>1385.1999511719</ele>
        <time>2013-08-21T15:25:58.000Z</time>
      </trkpt>
      <trkpt lat="45.9154" lon="6.45764">
        <ele>1384.4000244141</ele>
        <time>2013-08-21T15:26:04.000Z</time>
      </trkpt>
      <trkpt lat="45.9154" lon="6.45789">
        <ele>1384.5999755859</ele>
        <time>2013-08-21T15:26:12.000Z</time>
      </trkpt>
      <trkpt lat="45.91544" lon="6.45814">
        <ele>1386</ele>
        <time>2013-08-21T15:26:19.000Z</time>
      </trkpt>
      <trkpt lat="45.91545" lon="6.45834">
        <ele>1386.4000244141</ele>
        <time>2013-08-21T15:26:25.000Z</time>
      </trkpt>
      <trkpt lat="45.91545" lon="6.45854">
        <ele>1385.4000244141</ele>
        <time>2013-08-21T15:26:31.000Z</time>
      </trkpt>
      <trkpt lat="45.91543" lon="6.45875">
        <ele>1383.8000488281</ele>
        <time>2013-08-21T15:26:37.000Z</time>
      </trkpt>
      <trkpt lat="45.91542" lon="6.45889">
        <ele>1382.5999755859</ele>
        <time>2013-08-21T15:26:41.000Z</time>
      </trkpt>
      <trkpt lat="45.91543" lon="6.45908">
        <ele>1382.4000244141</ele>
        <time>2013-08-21T15:26:46.000Z</time>
      </trkpt>
      <trkpt lat="45.91543" lon="6.45927">
        <ele>1381.4000244141</ele>
        <time>2013-08-21T15:26:51.000Z</time>
      </trkpt>
      <trkpt lat="45.91545" lon="6.45954">
        <ele>1380.4000244141</ele>
        <time>2013-08-21T15:26:58.000Z</time>
      </trkpt>
      <trkpt lat="45.91545" lon="6.4597">
        <ele>1379.1999511719</ele>
        <time>2013-08-21T15:27:02.000Z</time>
      </trkpt>
      <trkpt lat="45.91544" lon="6.45987">
        <ele>1377.5999755859</ele>
        <time>2013-08-21T15:27:07.000Z</time>
      </trkpt>
      <trkpt lat="45.91544" lon="6.46009">
        <ele>1376.1999511719</ele>
        <time>2013-08-21T15:27:13.000Z</time>
      </trkpt>
      <trkpt lat="45.91549" lon="6.4603">
        <ele>1375.5999755859</ele>
        <time>2013-08-21T15:27:19.000Z</time>
      </trkpt>
      <trkpt lat="45.91549" lon="6.4604">
        <ele>1374.5999755859</ele>
        <time>2013-08-21T15:27:22.000Z</time>
      </trkpt>
      <trkpt lat="45.91553" lon="6.4606">
        <ele>1373.8000488281</ele>
        <time>2013-08-21T15:27:28.000Z</time>
      </trkpt>
      <trkpt lat="45.91555" lon="6.46078">
        <ele>1372.4000244141</ele>
        <time>2013-08-21T15:27:33.000Z</time>
      </trkpt>
      <trkpt lat="45.91559" lon="6.4609">
        <ele>1372.8000488281</ele>
        <time>2013-08-21T15:27:37.000Z</time>
      </trkpt>
      <trkpt lat="45.91563" lon="6.46099">
        <ele>1374.4000244141</ele>
        <time>2013-08-21T15:27:40.000Z</time>
      </trkpt>
      <trkpt lat="45.91568" lon="6.4612">
        <ele>1376</ele>
        <time>2013-08-21T15:27:48.000Z</time>
      </trkpt>
      <trkpt lat="45.91572" lon="6.4613">
        <ele>1377</ele>
        <time>2013-08-21T15:27:52.000Z</time>
      </trkpt>
      <trkpt lat="45.91577" lon="6.46134">
        <ele>1378.5999755859</ele>
        <time>2013-08-21T15:27:56.000Z</time>
      </trkpt>
      <trkpt lat="45.91583" lon="6.4613">
        <ele>1380.5999755859</ele>
        <time>2013-08-21T15:28:02.000Z</time>
      </trkpt>
      <trkpt lat="45.91586" lon="6.4613">
        <ele>1382.1999511719</ele>
        <time>2013-08-21T15:28:05.000Z</time>
      </trkpt>
      <trkpt lat="45.91593" lon="6.46133">
        <ele>1385.5999755859</ele>
        <time>2013-08-21T15:28:12.000Z</time>
      </trkpt>
      <trkpt lat="45.91599" lon="6.46141">
        <ele>1388.4000244141</ele>
        <time>2013-08-21T15:28:19.000Z</time>
      </trkpt>
      <trkpt lat="45.91604" lon="6.46149">
        <ele>1390.5999755859</ele>
        <time>2013-08-21T15:28:26.000Z</time>
      </trkpt>
      <trkpt lat="45.91608" lon="6.46152">
        <ele>1392.5999755859</ele>
        <time>2013-08-21T15:28:30.000Z</time>
      </trkpt>
      <trkpt lat="45.91612" lon="6.46156">
        <ele>1394.4000244141</ele>
        <time>2013-08-21T15:28:35.000Z</time>
      </trkpt>
      <trkpt lat="45.91618" lon="6.46155">
        <ele>1397.4000244141</ele>
        <time>2013-08-21T15:28:42.000Z</time>
      </trkpt>
      <trkpt lat="45.91621" lon="6.46152">
        <ele>1399</ele>
        <time>2013-08-21T15:28:47.000Z</time>
      </trkpt>
      <trkpt lat="45.91625" lon="6.46151">
        <ele>1401</ele>
        <time>2013-08-21T15:28:52.000Z</time>
      </trkpt>
      <trkpt lat="45.91628" lon="6.46151">
        <ele>1402.5999755859</ele>
        <time>2013-08-21T15:28:56.000Z</time>
      </trkpt>
      <trkpt lat="45.91633" lon="6.46153">
        <ele>1404.5999755859</ele>
        <time>2013-08-21T15:29:02.000Z</time>
      </trkpt>
      <trkpt lat="45.91638" lon="6.4615">
        <ele>1407.1999511719</ele>
        <time>2013-08-21T15:29:08.000Z</time>
      </trkpt>
      <trkpt lat="45.91639" lon="6.46145">
        <ele>1408.1999511719</ele>
        <time>2013-08-21T15:29:12.000Z</time>
      </trkpt>
      <trkpt lat="45.9164" lon="6.46143">
        <ele>1408.5999755859</ele>
        <time>2013-08-21T15:29:13.000Z</time>
      </trkpt>
      <trkpt lat="45.91638" lon="6.46136">
        <ele>1407.8000488281</ele>
        <time>2013-08-21T15:29:17.000Z</time>
      </trkpt>
      <trkpt lat="45.91637" lon="6.46131">
        <ele>1407.5999755859</ele>
        <time>2013-08-21T15:29:21.000Z</time>
      </trkpt>
      <trkpt lat="45.91637" lon="6.46123">
        <ele>1408.1999511719</ele>
        <time>2013-08-21T15:29:27.000Z</time>
      </trkpt>
      <trkpt lat="45.91641" lon="6.46111">
        <ele>1410.5999755859</ele>
        <time>2013-08-21T15:29:33.000Z</time>
      </trkpt>
      <trkpt lat="45.91646" lon="6.461">
        <ele>1413.5999755859</ele>
        <time>2013-08-21T15:29:40.000Z</time>
      </trkpt>
      <trkpt lat="45.91649" lon="6.46091">
        <ele>1415.5999755859</ele>
        <time>2013-08-21T15:29:46.000Z</time>
      </trkpt>
      <trkpt lat="45.91652" lon="6.46083">
        <ele>1418.1999511719</ele>
        <time>2013-08-21T15:29:52.000Z</time>
      </trkpt>
      <trkpt lat="45.91657" lon="6.46076">
        <ele>1421.5999755859</ele>
        <time>2013-08-21T15:29:58.000Z</time>
      </trkpt>
      <trkpt lat="45.91659" lon="6.46067">
        <ele>1423.4000244141</ele>
        <time>2013-08-21T15:30:04.000Z</time>
      </trkpt>
      <trkpt lat="45.91661" lon="6.4606">
        <ele>1425.1999511719</ele>
        <time>2013-08-21T15:30:09.000Z</time>
      </trkpt>
      <trkpt lat="45.91663" lon="6.46055">
        <ele>1426.5999755859</ele>
        <time>2013-08-21T15:30:11.000Z</time>
      </trkpt>
      <trkpt lat="45.91665" lon="6.46049">
        <ele>1428.1999511719</ele>
        <time>2013-08-21T15:30:14.000Z</time>
      </trkpt>
      <trkpt lat="45.91666" lon="6.46044">
        <ele>1429.1999511719</ele>
        <time>2013-08-21T15:30:18.000Z</time>
      </trkpt>
      <trkpt lat="45.91665" lon="6.46038">
        <ele>1429.1999511719</ele>
        <time>2013-08-21T15:30:22.000Z</time>
      </trkpt>
      <trkpt lat="45.91667" lon="6.46028">
        <ele>1431.1999511719</ele>
        <time>2013-08-21T15:30:28.000Z</time>
      </trkpt>
      <trkpt lat="45.91667" lon="6.46026">
        <ele>1431.5999755859</ele>
        <time>2013-08-21T15:30:29.000Z</time>
      </trkpt>
      <trkpt lat="45.91667" lon="6.46022">
        <ele>1432</ele>
        <time>2013-08-21T15:30:32.000Z</time>
      </trkpt>
      <trkpt lat="45.91667" lon="6.46017">
        <ele>1432.4000244141</ele>
        <time>2013-08-21T15:30:35.000Z</time>
      </trkpt>
      <trkpt lat="45.91667" lon="6.46007">
        <ele>1433.5999755859</ele>
        <time>2013-08-21T15:30:42.000Z</time>
      </trkpt>
      <trkpt lat="45.91668" lon="6.45997">
        <ele>1435.1999511719</ele>
        <time>2013-08-21T15:30:49.000Z</time>
      </trkpt>
      <trkpt lat="45.91669" lon="6.45989">
        <ele>1436.4000244141</ele>
        <time>2013-08-21T15:30:54.000Z</time>
      </trkpt>
      <trkpt lat="45.91669" lon="6.45982">
        <ele>1437.1999511719</ele>
        <time>2013-08-21T15:30:59.000Z</time>
      </trkpt>
      <trkpt lat="45.9167" lon="6.45973">
        <ele>1439.1999511719</ele>
        <time>2013-08-21T15:31:04.000Z</time>
      </trkpt>
      <trkpt lat="45.9167" lon="6.45964">
        <ele>1440.1999511719</ele>
        <time>2013-08-21T15:31:10.000Z</time>
      </trkpt>
      <trkpt lat="45.91672" lon="6.45954">
        <ele>1442.4000244141</ele>
        <time>2013-08-21T15:31:16.000Z</time>
      </trkpt>
      <trkpt lat="45.91672" lon="6.45952">
        <ele>1442.5999755859</ele>
        <time>2013-08-21T15:31:17.000Z</time>
      </trkpt>
      <trkpt lat="45.91672" lon="6.45945">
        <ele>1443.4000244141</ele>
        <time>2013-08-21T15:31:21.000Z</time>
      </trkpt>
      <trkpt lat="45.91672" lon="6.45937">
        <ele>1444.8000488281</ele>
        <time>2013-08-21T15:31:25.000Z</time>
      </trkpt>
      <trkpt lat="45.91674" lon="6.4593">
        <ele>1447</ele>
        <time>2013-08-21T15:31:30.000Z</time>
      </trkpt>
      <trkpt lat="45.91682" lon="6.45934">
        <ele>1449.8000488281</ele>
        <time>2013-08-21T15:31:36.000Z</time>
      </trkpt>
      <trkpt lat="45.91687" lon="6.45941">
        <ele>1451.4000244141</ele>
        <time>2013-08-21T15:31:41.000Z</time>
      </trkpt>
      <trkpt lat="45.9169" lon="6.45947">
        <ele>1452.1999511719</ele>
        <time>2013-08-21T15:31:45.000Z</time>
      </trkpt>
      <trkpt lat="45.91694" lon="6.45958">
        <ele>1452.8000488281</ele>
        <time>2013-08-21T15:31:51.000Z</time>
      </trkpt>
      <trkpt lat="45.91695" lon="6.45961">
        <ele>1453</ele>
        <time>2013-08-21T15:31:53.000Z</time>
      </trkpt>
      <trkpt lat="45.91698" lon="6.45966">
        <ele>1453.8000488281</ele>
        <time>2013-08-21T15:31:57.000Z</time>
      </trkpt>
      <trkpt lat="45.917" lon="6.45971">
        <ele>1453.8000488281</ele>
        <time>2013-08-21T15:32:01.000Z</time>
      </trkpt>
      <trkpt lat="45.91703" lon="6.45976">
        <ele>1454.5999755859</ele>
        <time>2013-08-21T15:32:06.000Z</time>
      </trkpt>
      <trkpt lat="45.91706" lon="6.4598">
        <ele>1455.4000244141</ele>
        <time>2013-08-21T15:32:09.000Z</time>
      </trkpt>
      <trkpt lat="45.91712" lon="6.45988">
        <ele>1457.1999511719</ele>
        <time>2013-08-21T15:32:16.000Z</time>
      </trkpt>
      <trkpt lat="45.91713" lon="6.45991">
        <ele>1457.5999755859</ele>
        <time>2013-08-21T15:32:19.000Z</time>
      </trkpt>
      <trkpt lat="45.9172" lon="6.45996">
        <ele>1459.8000488281</ele>
        <time>2013-08-21T15:32:26.000Z</time>
      </trkpt>
      <trkpt lat="45.91724" lon="6.46">
        <ele>1461.5999755859</ele>
        <time>2013-08-21T15:32:30.000Z</time>
      </trkpt>
      <trkpt lat="45.91732" lon="6.46006">
        <ele>1464.4000244141</ele>
        <time>2013-08-21T15:32:37.000Z</time>
      </trkpt>
      <trkpt lat="45.91736" lon="6.46012">
        <ele>1466</ele>
        <time>2013-08-21T15:32:42.000Z</time>
      </trkpt>
      <trkpt lat="45.91742" lon="6.46018">
        <ele>1467.8000488281</ele>
        <time>2013-08-21T15:32:48.000Z</time>
      </trkpt>
      <trkpt lat="45.91743" lon="6.4602">
        <ele>1468.4000244141</ele>
        <time>2013-08-21T15:32:50.000Z</time>
      </trkpt>
      <trkpt lat="45.91754" lon="6.46029">
        <ele>1472</ele>
        <time>2013-08-21T15:32:58.000Z</time>
      </trkpt>
      <trkpt lat="45.9176" lon="6.46035">
        <ele>1473.4000244141</ele>
        <time>2013-08-21T15:33:02.000Z</time>
      </trkpt>
      <trkpt lat="45.91762" lon="6.46036">
        <ele>1473.8000488281</ele>
        <time>2013-08-21T15:33:04.000Z</time>
      </trkpt>
      <trkpt lat="45.91766" lon="6.46039">
        <ele>1475</ele>
        <time>2013-08-21T15:33:09.000Z</time>
      </trkpt>
      <trkpt lat="45.9177" lon="6.46038">
        <ele>1476.5999755859</ele>
        <time>2013-08-21T15:33:15.000Z</time>
      </trkpt>
      <trkpt lat="45.91771" lon="6.46034">
        <ele>1477.4000244141</ele>
        <time>2013-08-21T15:33:19.000Z</time>
      </trkpt>
      <trkpt lat="45.9177" lon="6.46029">
        <ele>1477.5999755859</ele>
        <time>2013-08-21T15:33:24.000Z</time>
      </trkpt>
      <trkpt lat="45.91771" lon="6.46023">
        <ele>1478.8000488281</ele>
        <time>2013-08-21T15:33:28.000Z</time>
      </trkpt>
      <trkpt lat="45.91771" lon="6.46018">
        <ele>1479.4000244141</ele>
        <time>2013-08-21T15:33:31.000Z</time>
      </trkpt>
      <trkpt lat="45.91771" lon="6.46012">
        <ele>1480.4000244141</ele>
        <time>2013-08-21T15:33:34.000Z</time>
      </trkpt>
      <trkpt lat="45.91772" lon="6.46006">
        <ele>1481.5999755859</ele>
        <time>2013-08-21T15:33:38.000Z</time>
      </trkpt>
      <trkpt lat="45.91772" lon="6.46001">
        <ele>1482.4000244141</ele>
        <time>2013-08-21T15:33:41.000Z</time>
      </trkpt>
      <trkpt lat="45.91773" lon="6.45998">
        <ele>1483.1999511719</ele>
        <time>2013-08-21T15:33:43.000Z</time>
      </trkpt>
      <trkpt lat="45.91772" lon="6.45992">
        <ele>1484</ele>
        <time>2013-08-21T15:33:48.000Z</time>
      </trkpt>
      <trkpt lat="45.91775" lon="6.45986">
        <ele>1485.8000488281</ele>
        <time>2013-08-21T15:33:53.000Z</time>
      </trkpt>
      <trkpt lat="45.91774" lon="6.45983">
        <ele>1486</ele>
        <time>2013-08-21T15:33:55.000Z</time>
      </trkpt>
      <trkpt lat="45.91774" lon="6.45978">
        <ele>1486.5999755859</ele>
        <time>2013-08-21T15:33:58.000Z</time>
      </trkpt>
      <trkpt lat="45.91775" lon="6.45974">
        <ele>1487.8000488281</ele>
        <time>2013-08-21T15:34:01.000Z</time>
      </trkpt>
      <trkpt lat="45.91775" lon="6.45963">
        <ele>1489</ele>
        <time>2013-08-21T15:34:08.000Z</time>
      </trkpt>
      <trkpt lat="45.91775" lon="6.45955">
        <ele>1490</ele>
        <time>2013-08-21T15:34:13.000Z</time>
      </trkpt>
      <trkpt lat="45.91775" lon="6.45945">
        <ele>1491.8000488281</ele>
        <time>2013-08-21T15:34:20.000Z</time>
      </trkpt>
      <trkpt lat="45.91777" lon="6.45933">
        <ele>1494.1999511719</ele>
        <time>2013-08-21T15:34:25.000Z</time>
      </trkpt>
      <trkpt lat="45.91777" lon="6.45923">
        <ele>1495.5999755859</ele>
        <time>2013-08-21T15:34:30.000Z</time>
      </trkpt>
      <trkpt lat="45.91777" lon="6.45918">
        <ele>1496.5999755859</ele>
        <time>2013-08-21T15:34:33.000Z</time>
      </trkpt>
      <trkpt lat="45.9178" lon="6.45907">
        <ele>1498.5999755859</ele>
        <time>2013-08-21T15:34:39.000Z</time>
      </trkpt>
      <trkpt lat="45.91781" lon="6.45898">
        <ele>1500</ele>
        <time>2013-08-21T15:34:44.000Z</time>
      </trkpt>
      <trkpt lat="45.91781" lon="6.45897">
        <ele>1500</ele>
        <time>2013-08-21T15:34:45.000Z</time>
      </trkpt>
      <trkpt lat="45.91782" lon="6.45883">
        <ele>1501.4000244141</ele>
        <time>2013-08-21T15:34:52.000Z</time>
      </trkpt>
      <trkpt lat="45.91783" lon="6.45867">
        <ele>1503</ele>
        <time>2013-08-21T15:35:02.000Z</time>
      </trkpt>
      <trkpt lat="45.91783" lon="6.4586">
        <ele>1503.5999755859</ele>
        <time>2013-08-21T15:35:07.000Z</time>
      </trkpt>
      <trkpt lat="45.91784" lon="6.45857">
        <ele>1504.1999511719</ele>
        <time>2013-08-21T15:35:09.000Z</time>
      </trkpt>
      <trkpt lat="45.91786" lon="6.45846">
        <ele>1506.4000244141</ele>
        <time>2013-08-21T15:35:15.000Z</time>
      </trkpt>
      <trkpt lat="45.91788" lon="6.45841">
        <ele>1507.5999755859</ele>
        <time>2013-08-21T15:35:19.000Z</time>
      </trkpt>
      <trkpt lat="45.91788" lon="6.45838">
        <ele>1507.8000488281</ele>
        <time>2013-08-21T15:35:21.000Z</time>
      </trkpt>
      <trkpt lat="45.91788" lon="6.45829">
        <ele>1508.1999511719</ele>
        <time>2013-08-21T15:35:28.000Z</time>
      </trkpt>
      <trkpt lat="45.91788" lon="6.45827">
        <ele>1508.4000244141</ele>
        <time>2013-08-21T15:35:32.000Z</time>
      </trkpt>
      <trkpt lat="45.91789" lon="6.45812">
        <ele>1508.8000488281</ele>
        <time>2013-08-21T15:35:37.000Z</time>
      </trkpt>
      <trkpt lat="45.91789" lon="6.45802">
        <ele>1509.1999511719</ele>
        <time>2013-08-21T15:35:42.000Z</time>
      </trkpt>
      <trkpt lat="45.9179" lon="6.45797">
        <ele>1509.5999755859</ele>
        <time>2013-08-21T15:35:45.000Z</time>
      </trkpt>
      <trkpt lat="45.91791" lon="6.45788">
        <ele>1510.4000244141</ele>
        <time>2013-08-21T15:35:52.000Z</time>
      </trkpt>
      <trkpt lat="45.91792" lon="6.45786">
        <ele>1510.8000488281</ele>
        <time>2013-08-21T15:35:53.000Z</time>
      </trkpt>
      <trkpt lat="45.91794" lon="6.45776">
        <ele>1512</ele>
        <time>2013-08-21T15:35:59.000Z</time>
      </trkpt>
      <trkpt lat="45.91796" lon="6.45766">
        <ele>1513.1999511719</ele>
        <time>2013-08-21T15:36:06.000Z</time>
      </trkpt>
      <trkpt lat="45.91799" lon="6.45754">
        <ele>1514.8000488281</ele>
        <time>2013-08-21T15:36:13.000Z</time>
      </trkpt>
      <trkpt lat="45.91802" lon="6.45747">
        <ele>1515.8000488281</ele>
        <time>2013-08-21T15:36:17.000Z</time>
      </trkpt>
      <trkpt lat="45.91806" lon="6.45739">
        <ele>1516.8000488281</ele>
        <time>2013-08-21T15:36:23.000Z</time>
      </trkpt>
      <trkpt lat="45.91807" lon="6.45739">
        <ele>1517</ele>
        <time>2013-08-21T15:36:24.000Z</time>
      </trkpt>
      <trkpt lat="45.91808" lon="6.45735">
        <ele>1517.4000244141</ele>
        <time>2013-08-21T15:36:26.000Z</time>
      </trkpt>
      <trkpt lat="45.91812" lon="6.45724">
        <ele>1518.1999511719</ele>
        <time>2013-08-21T15:36:32.000Z</time>
      </trkpt>
      <trkpt lat="45.91815" lon="6.4572">
        <ele>1519.1999511719</ele>
        <time>2013-08-21T15:36:35.000Z</time>
      </trkpt>
      <trkpt lat="45.91823" lon="6.45714">
        <ele>1522.1999511719</ele>
        <time>2013-08-21T15:36:43.000Z</time>
      </trkpt>
      <trkpt lat="45.91828" lon="6.4571">
        <ele>1524.8000488281</ele>
        <time>2013-08-21T15:36:48.000Z</time>
      </trkpt>
      <trkpt lat="45.91837" lon="6.4571">
        <ele>1528.4000244141</ele>
        <time>2013-08-21T15:36:56.000Z</time>
      </trkpt>
      <trkpt lat="45.91841" lon="6.45708">
        <ele>1529.4000244141</ele>
        <time>2013-08-21T15:37:01.000Z</time>
      </trkpt>
      <trkpt lat="45.91844" lon="6.45708">
        <ele>1530.5999755859</ele>
        <time>2013-08-21T15:37:04.000Z</time>
      </trkpt>
      <trkpt lat="45.91849" lon="6.45709">
        <ele>1532.4000244141</ele>
        <time>2013-08-21T15:37:08.000Z</time>
      </trkpt>
      <trkpt lat="45.91857" lon="6.45702">
        <ele>1534.8000488281</ele>
        <time>2013-08-21T15:37:15.000Z</time>
      </trkpt>
      <trkpt lat="45.91865" lon="6.45701">
        <ele>1537.8000488281</ele>
        <time>2013-08-21T15:37:21.000Z</time>
      </trkpt>
      <trkpt lat="45.91867" lon="6.45701">
        <ele>1538.1999511719</ele>
        <time>2013-08-21T15:37:22.000Z</time>
      </trkpt>
      <trkpt lat="45.91871" lon="6.45697">
        <ele>1539.5999755859</ele>
        <time>2013-08-21T15:37:26.000Z</time>
      </trkpt>
      <trkpt lat="45.91881" lon="6.45686">
        <ele>1542.1999511719</ele>
        <time>2013-08-21T15:37:35.000Z</time>
      </trkpt>
      <trkpt lat="45.91884" lon="6.45685">
        <ele>1543.4000244141</ele>
        <time>2013-08-21T15:37:37.000Z</time>
      </trkpt>
      <trkpt lat="45.91888" lon="6.45682">
        <ele>1544.8000488281</ele>
        <time>2013-08-21T15:37:41.000Z</time>
      </trkpt>
      <trkpt lat="45.91892" lon="6.45676">
        <ele>1545.4000244141</ele>
        <time>2013-08-21T15:37:47.000Z</time>
      </trkpt>
      <trkpt lat="45.91895" lon="6.4567">
        <ele>1546.4000244141</ele>
        <time>2013-08-21T15:37:52.000Z</time>
      </trkpt>
      <trkpt lat="45.919" lon="6.45663">
        <ele>1548</ele>
        <time>2013-08-21T15:37:58.000Z</time>
      </trkpt>
      <trkpt lat="45.91904" lon="6.45657">
        <ele>1549.1999511719</ele>
        <time>2013-08-21T15:38:03.000Z</time>
      </trkpt>
      <trkpt lat="45.91908" lon="6.45646">
        <ele>1550.5999755859</ele>
        <time>2013-08-21T15:38:09.000Z</time>
      </trkpt>
      <trkpt lat="45.91909" lon="6.45644">
        <ele>1551</ele>
        <time>2013-08-21T15:38:11.000Z</time>
      </trkpt>
      <trkpt lat="45.9191" lon="6.4564">
        <ele>1551.4000244141</ele>
        <time>2013-08-21T15:38:14.000Z</time>
      </trkpt>
      <trkpt lat="45.91904" lon="6.45627">
        <ele>1549.4000244141</ele>
        <time>2013-08-21T15:38:20.000Z</time>
      </trkpt>
      <trkpt lat="45.91903" lon="6.45626">
        <ele>1549</ele>
        <time>2013-08-21T15:38:21.000Z</time>
      </trkpt>
      <trkpt lat="45.91901" lon="6.45616">
        <ele>1548.1999511719</ele>
        <time>2013-08-21T15:38:27.000Z</time>
      </trkpt>
      <trkpt lat="45.919" lon="6.4561">
        <ele>1547.8000488281</ele>
        <time>2013-08-21T15:38:30.000Z</time>
      </trkpt>
      <trkpt lat="45.91905" lon="6.45599">
        <ele>1549.5999755859</ele>
        <time>2013-08-21T15:38:38.000Z</time>
      </trkpt>
      <trkpt lat="45.91907" lon="6.45591">
        <ele>1550.1999511719</ele>
        <time>2013-08-21T15:38:44.000Z</time>
      </trkpt>
      <trkpt lat="45.91908" lon="6.45588">
        <ele>1550.5999755859</ele>
        <time>2013-08-21T15:38:46.000Z</time>
      </trkpt>
      <trkpt lat="45.91915" lon="6.45583">
        <ele>1553.5999755859</ele>
        <time>2013-08-21T15:38:52.000Z</time>
      </trkpt>
      <trkpt lat="45.91916" lon="6.45571">
        <ele>1554.8000488281</ele>
        <time>2013-08-21T15:38:58.000Z</time>
      </trkpt>
      <trkpt lat="45.91918" lon="6.45567">
        <ele>1556</ele>
        <time>2013-08-21T15:39:01.000Z</time>
      </trkpt>
      <trkpt lat="45.91921" lon="6.45562">
        <ele>1557.1999511719</ele>
        <time>2013-08-21T15:39:06.000Z</time>
      </trkpt>
      <trkpt lat="45.91926" lon="6.45563">
        <ele>1558.5999755859</ele>
        <time>2013-08-21T15:39:10.000Z</time>
      </trkpt>
      <trkpt lat="45.91931" lon="6.45575">
        <ele>1558.8000488281</ele>
        <time>2013-08-21T15:39:16.000Z</time>
      </trkpt>
      <trkpt lat="45.91932" lon="6.45579">
        <ele>1558.8000488281</ele>
        <time>2013-08-21T15:39:17.000Z</time>
      </trkpt>
      <trkpt lat="45.91937" lon="6.45597">
        <ele>1559.4000244141</ele>
        <time>2013-08-21T15:39:23.000Z</time>
      </trkpt>
      <trkpt lat="45.91941" lon="6.45612">
        <ele>1560.4000244141</ele>
        <time>2013-08-21T15:39:28.000Z</time>
      </trkpt>
      <trkpt lat="45.91945" lon="6.45628">
        <ele>1561.1999511719</ele>
        <time>2013-08-21T15:39:33.000Z</time>
      </trkpt>
      <trkpt lat="45.91949" lon="6.45648">
        <ele>1561.8000488281</ele>
        <time>2013-08-21T15:39:38.000Z</time>
      </trkpt>
      <trkpt lat="45.91951" lon="6.45656">
        <ele>1561.8000488281</ele>
        <time>2013-08-21T15:39:41.000Z</time>
      </trkpt>
      <trkpt lat="45.91954" lon="6.45667">
        <ele>1562.4000244141</ele>
        <time>2013-08-21T15:39:46.000Z</time>
      </trkpt>
      <trkpt lat="45.91958" lon="6.45675">
        <ele>1563.5999755859</ele>
        <time>2013-08-21T15:39:51.000Z</time>
      </trkpt>
      <trkpt lat="45.91959" lon="6.45675">
        <ele>1563.8000488281</ele>
        <time>2013-08-21T15:39:52.000Z</time>
      </trkpt>
      <trkpt lat="45.91959" lon="6.4568">
        <ele>1564.1999511719</ele>
        <time>2013-08-21T15:39:56.000Z</time>
      </trkpt>
      <trkpt lat="45.91961" lon="6.45696">
        <ele>1565.1999511719</ele>
        <time>2013-08-21T15:40:02.000Z</time>
      </trkpt>
      <trkpt lat="45.91961" lon="6.45709">
        <ele>1565.8000488281</ele>
        <time>2013-08-21T15:40:09.000Z</time>
      </trkpt>
      <trkpt lat="45.91961" lon="6.45719">
        <ele>1566</ele>
        <time>2013-08-21T15:40:15.000Z</time>
      </trkpt>
      <trkpt lat="45.9196" lon="6.45732">
        <ele>1566.4000244141</ele>
        <time>2013-08-21T15:40:21.000Z</time>
      </trkpt>
      <trkpt lat="45.91958" lon="6.45739">
        <ele>1566.4000244141</ele>
        <time>2013-08-21T15:40:25.000Z</time>
      </trkpt>
      <trkpt lat="45.91959" lon="6.45752">
        <ele>1567</ele>
        <time>2013-08-21T15:40:31.000Z</time>
      </trkpt>
      <trkpt lat="45.91959" lon="6.4576">
        <ele>1567.1999511719</ele>
        <time>2013-08-21T15:40:35.000Z</time>
      </trkpt>
      <trkpt lat="45.91962" lon="6.4577">
        <ele>1568.1999511719</ele>
        <time>2013-08-21T15:40:42.000Z</time>
      </trkpt>
      <trkpt lat="45.91963" lon="6.45772">
        <ele>1568.4000244141</ele>
        <time>2013-08-21T15:40:43.000Z</time>
      </trkpt>
      <trkpt lat="45.91969" lon="6.45782">
        <ele>1570</ele>
        <time>2013-08-21T15:40:49.000Z</time>
      </trkpt>
      <trkpt lat="45.91971" lon="6.45789">
        <ele>1570.8000488281</ele>
        <time>2013-08-21T15:40:54.000Z</time>
      </trkpt>
      <trkpt lat="45.91973" lon="6.45793">
        <ele>1571.4000244141</ele>
        <time>2013-08-21T15:40:57.000Z</time>
      </trkpt>
      <trkpt lat="45.91978" lon="6.45803">
        <ele>1572.8000488281</ele>
        <time>2013-08-21T15:41:04.000Z</time>
      </trkpt>
      <trkpt lat="45.91978" lon="6.45805">
        <ele>1573</ele>
        <time>2013-08-21T15:41:05.000Z</time>
      </trkpt>
      <trkpt lat="45.91984" lon="6.45803">
        <ele>1574.4000244141</ele>
        <time>2013-08-21T15:41:11.000Z</time>
      </trkpt>
      <trkpt lat="45.91989" lon="6.45804">
        <ele>1575.4000244141</ele>
        <time>2013-08-21T15:41:15.000Z</time>
      </trkpt>
      <trkpt lat="45.91991" lon="6.45801">
        <ele>1575.8000488281</ele>
        <time>2013-08-21T15:41:18.000Z</time>
      </trkpt>
      <trkpt lat="45.91993" lon="6.45791">
        <ele>1575.8000488281</ele>
        <time>2013-08-21T15:41:25.000Z</time>
      </trkpt>
      <trkpt lat="45.91993" lon="6.45789">
        <ele>1575.5999755859</ele>
        <time>2013-08-21T15:41:26.000Z</time>
      </trkpt>
      <trkpt lat="45.91998" lon="6.45776">
        <ele>1576</ele>
        <time>2013-08-21T15:41:34.000Z</time>
      </trkpt>
      <trkpt lat="45.92006" lon="6.4577">
        <ele>1576.4000244141</ele>
        <time>2013-08-21T15:41:41.000Z</time>
      </trkpt>
      <trkpt lat="45.92014" lon="6.45765">
        <ele>1576.4000244141</ele>
        <time>2013-08-21T15:41:49.000Z</time>
      </trkpt>
      <trkpt lat="45.92018" lon="6.45764">
        <ele>1576.4000244141</ele>
        <time>2013-08-21T15:41:52.000Z</time>
      </trkpt>
      <trkpt lat="45.92025" lon="6.45765">
        <ele>1576.8000488281</ele>
        <time>2013-08-21T15:42:00.000Z</time>
      </trkpt>
      <trkpt lat="45.92032" lon="6.45748">
        <ele>1576</ele>
        <time>2013-08-21T15:42:05.000Z</time>
      </trkpt>
      <trkpt lat="45.92039" lon="6.45733">
        <ele>1575.8000488281</ele>
        <time>2013-08-21T15:42:09.000Z</time>
      </trkpt>
      <trkpt lat="45.92041" lon="6.45717">
        <ele>1575.1999511719</ele>
        <time>2013-08-21T15:42:13.000Z</time>
      </trkpt>
      <trkpt lat="45.9204" lon="6.45693">
        <ele>1574.4000244141</ele>
        <time>2013-08-21T15:42:19.000Z</time>
      </trkpt>
      <trkpt lat="45.9204" lon="6.45678">
        <ele>1573.8000488281</ele>
        <time>2013-08-21T15:42:24.000Z</time>
      </trkpt>
      <trkpt lat="45.9204" lon="6.45675">
        <ele>1573.5999755859</ele>
        <time>2013-08-21T15:42:25.000Z</time>
      </trkpt>
      <trkpt lat="45.92041" lon="6.45651">
        <ele>1574</ele>
        <time>2013-08-21T15:42:32.000Z</time>
      </trkpt>
      <trkpt lat="45.9204" lon="6.4563">
        <ele>1575</ele>
        <time>2013-08-21T15:42:37.000Z</time>
      </trkpt>
      <trkpt lat="45.92038" lon="6.45611">
        <ele>1575.8000488281</ele>
        <time>2013-08-21T15:42:42.000Z</time>
      </trkpt>
      <trkpt lat="45.92036" lon="6.45596">
        <ele>1576.4000244141</ele>
        <time>2013-08-21T15:42:47.000Z</time>
      </trkpt>
      <trkpt lat="45.92033" lon="6.4558">
        <ele>1577.4000244141</ele>
        <time>2013-08-21T15:42:52.000Z</time>
      </trkpt>
      <trkpt lat="45.9203" lon="6.45562">
        <ele>1579.4000244141</ele>
        <time>2013-08-21T15:42:59.000Z</time>
      </trkpt>
      <trkpt lat="45.92031" lon="6.45546">
        <ele>1581.1999511719</ele>
        <time>2013-08-21T15:43:05.000Z</time>
      </trkpt>
      <trkpt lat="45.92033" lon="6.4553">
        <ele>1582.5999755859</ele>
        <time>2013-08-21T15:43:11.000Z</time>
      </trkpt>
      <trkpt lat="45.92036" lon="6.45513">
        <ele>1584.1999511719</ele>
        <time>2013-08-21T15:43:17.000Z</time>
      </trkpt>
      <trkpt lat="45.9204" lon="6.45501">
        <ele>1585</ele>
        <time>2013-08-21T15:43:22.000Z</time>
      </trkpt>
      <trkpt lat="45.92041" lon="6.45499">
        <ele>1585.1999511719</ele>
        <time>2013-08-21T15:43:23.000Z</time>
      </trkpt>
      <trkpt lat="45.92045" lon="6.45489">
        <ele>1586.5999755859</ele>
        <time>2013-08-21T15:43:29.000Z</time>
      </trkpt>
      <trkpt lat="45.92046" lon="6.45482">
        <ele>1587.8000488281</ele>
        <time>2013-08-21T15:43:33.000Z</time>
      </trkpt>
      <trkpt lat="45.92048" lon="6.45472">
        <ele>1589.4000244141</ele>
        <time>2013-08-21T15:43:39.000Z</time>
      </trkpt>
      <trkpt lat="45.92049" lon="6.45468">
        <ele>1590</ele>
        <time>2013-08-21T15:43:42.000Z</time>
      </trkpt>
      <trkpt lat="45.9205" lon="6.45465">
        <ele>1590.5999755859</ele>
        <time>2013-08-21T15:43:45.000Z</time>
      </trkpt>
      <trkpt lat="45.92051" lon="6.45456">
        <ele>1592.1999511719</ele>
        <time>2013-08-21T15:43:51.000Z</time>
      </trkpt>
      <trkpt lat="45.92053" lon="6.45451">
        <ele>1592.8000488281</ele>
        <time>2013-08-21T15:43:55.000Z</time>
      </trkpt>
      <trkpt lat="45.92051" lon="6.45441">
        <ele>1594.8000488281</ele>
        <time>2013-08-21T15:44:00.000Z</time>
      </trkpt>
      <trkpt lat="45.92046" lon="6.45432">
        <ele>1596.8000488281</ele>
        <time>2013-08-21T15:44:06.000Z</time>
      </trkpt>
      <trkpt lat="45.9204" lon="6.45424">
        <ele>1598.5999755859</ele>
        <time>2013-08-21T15:44:14.000Z</time>
      </trkpt>
      <trkpt lat="45.92036" lon="6.45417">
        <ele>1600.1999511719</ele>
        <time>2013-08-21T15:44:19.000Z</time>
      </trkpt>
      <trkpt lat="45.92036" lon="6.45415">
        <ele>1600.5999755859</ele>
        <time>2013-08-21T15:44:20.000Z</time>
      </trkpt>
      <trkpt lat="45.92035" lon="6.45409">
        <ele>1601.8000488281</ele>
        <time>2013-08-21T15:44:23.000Z</time>
      </trkpt>
      <trkpt lat="45.92035" lon="6.45398">
        <ele>1604</ele>
        <time>2013-08-21T15:44:29.000Z</time>
      </trkpt>
      <trkpt lat="45.92036" lon="6.45386">
        <ele>1606.4000244141</ele>
        <time>2013-08-21T15:44:37.000Z</time>
      </trkpt>
      <trkpt lat="45.92036" lon="6.45384">
        <ele>1606.8000488281</ele>
        <time>2013-08-21T15:44:38.000Z</time>
      </trkpt>
      <trkpt lat="45.92039" lon="6.4538">
        <ele>1607.5999755859</ele>
        <time>2013-08-21T15:44:42.000Z</time>
      </trkpt>
      <trkpt lat="45.92044" lon="6.45371">
        <ele>1609.5999755859</ele>
        <time>2013-08-21T15:44:51.000Z</time>
      </trkpt>
      <trkpt lat="45.92047" lon="6.45365">
        <ele>1610.8000488281</ele>
        <time>2013-08-21T15:44:57.000Z</time>
      </trkpt>
      <trkpt lat="45.92051" lon="6.45362">
        <ele>1611.4000244141</ele>
        <time>2013-08-21T15:45:03.000Z</time>
      </trkpt>
      <trkpt lat="45.92054" lon="6.45356">
        <ele>1612.8000488281</ele>
        <time>2013-08-21T15:45:08.000Z</time>
      </trkpt>
      <trkpt lat="45.92055" lon="6.45353">
        <ele>1613.4000244141</ele>
        <time>2013-08-21T15:45:11.000Z</time>
      </trkpt>
      <trkpt lat="45.92056" lon="6.45349">
        <ele>1614.4000244141</ele>
        <time>2013-08-21T15:45:15.000Z</time>
      </trkpt>
      <trkpt lat="45.9206" lon="6.45343">
        <ele>1615.8000488281</ele>
        <time>2013-08-21T15:45:21.000Z</time>
      </trkpt>
      <trkpt lat="45.92063" lon="6.45334">
        <ele>1618</ele>
        <time>2013-08-21T15:45:29.000Z</time>
      </trkpt>
      <trkpt lat="45.92063" lon="6.45322">
        <ele>1620.1999511719</ele>
        <time>2013-08-21T15:45:35.000Z</time>
      </trkpt>
      <trkpt lat="45.92064" lon="6.45316">
        <ele>1621.4000244141</ele>
        <time>2013-08-21T15:45:40.000Z</time>
      </trkpt>
      <trkpt lat="45.92064" lon="6.45314">
        <ele>1621.8000488281</ele>
        <time>2013-08-21T15:45:42.000Z</time>
      </trkpt>
      <trkpt lat="45.92066" lon="6.45303">
        <ele>1624</ele>
        <time>2013-08-21T15:45:48.000Z</time>
      </trkpt>
      <trkpt lat="45.92071" lon="6.45288">
        <ele>1627.4000244141</ele>
        <time>2013-08-21T15:45:53.000Z</time>
      </trkpt>
      <trkpt lat="45.9208" lon="6.45275">
        <ele>1631</ele>
        <time>2013-08-21T15:45:58.000Z</time>
      </trkpt>
      <trkpt lat="45.92089" lon="6.45261">
        <ele>1632.8000488281</ele>
        <time>2013-08-21T15:46:03.000Z</time>
      </trkpt>
      <trkpt lat="45.92096" lon="6.45246">
        <ele>1633.4000244141</ele>
        <time>2013-08-21T15:46:08.000Z</time>
      </trkpt>
      <trkpt lat="45.92097" lon="6.45244">
        <ele>1633.1999511719</ele>
        <time>2013-08-21T15:46:09.000Z</time>
      </trkpt>
      <trkpt lat="45.921" lon="6.45242">
        <ele>1632.5999755859</ele>
        <time>2013-08-21T15:46:11.000Z</time>
      </trkpt>
      <trkpt lat="45.92101" lon="6.45239">
        <ele>1632.5999755859</ele>
        <time>2013-08-21T15:46:13.000Z</time>
      </trkpt>
      <trkpt lat="45.92106" lon="6.45231">
        <ele>1632.4000244141</ele>
        <time>2013-08-21T15:46:18.000Z</time>
      </trkpt>
      <trkpt lat="45.92109" lon="6.45226">
        <ele>1632.5999755859</ele>
        <time>2013-08-21T15:46:22.000Z</time>
      </trkpt>
      <trkpt lat="45.92114" lon="6.45213">
        <ele>1633.5999755859</ele>
        <time>2013-08-21T15:46:29.000Z</time>
      </trkpt>
      <trkpt lat="45.9212" lon="6.45206">
        <ele>1633.5999755859</ele>
        <time>2013-08-21T15:46:35.000Z</time>
      </trkpt>
      <trkpt lat="45.92127" lon="6.45199">
        <ele>1634.1999511719</ele>
        <time>2013-08-21T15:46:41.000Z</time>
      </trkpt>
      <trkpt lat="45.92128" lon="6.45197">
        <ele>1634.4000244141</ele>
        <time>2013-08-21T15:46:42.000Z</time>
      </trkpt>
      <trkpt lat="45.92137" lon="6.45186">
        <ele>1636</ele>
        <time>2013-08-21T15:46:49.000Z</time>
      </trkpt>
      <trkpt lat="45.92141" lon="6.45176">
        <ele>1638.1999511719</ele>
        <time>2013-08-21T15:46:54.000Z</time>
      </trkpt>
      <trkpt lat="45.92145" lon="6.45163">
        <ele>1641.1999511719</ele>
        <time>2013-08-21T15:47:01.000Z</time>
      </trkpt>
      <trkpt lat="45.92145" lon="6.45162">
        <ele>1641.5999755859</ele>
        <time>2013-08-21T15:47:02.000Z</time>
      </trkpt>
      <trkpt lat="45.92144" lon="6.45152">
        <ele>1643.8000488281</ele>
        <time>2013-08-21T15:47:08.000Z</time>
      </trkpt>
      <trkpt lat="45.92146" lon="6.45146">
        <ele>1645.4000244141</ele>
        <time>2013-08-21T15:47:14.000Z</time>
      </trkpt>
      <trkpt lat="45.92149" lon="6.45138">
        <ele>1647.1999511719</ele>
        <time>2013-08-21T15:47:20.000Z</time>
      </trkpt>
      <trkpt lat="45.92148" lon="6.45134">
        <ele>1648.1999511719</ele>
        <time>2013-08-21T15:47:24.000Z</time>
      </trkpt>
      <trkpt lat="45.9215" lon="6.4513">
        <ele>1649.1999511719</ele>
        <time>2013-08-21T15:47:29.000Z</time>
      </trkpt>
      <trkpt lat="45.92152" lon="6.45125">
        <ele>1650.8000488281</ele>
        <time>2013-08-21T15:47:35.000Z</time>
      </trkpt>
      <trkpt lat="45.92155" lon="6.4512">
        <ele>1652.4000244141</ele>
        <time>2013-08-21T15:47:40.000Z</time>
      </trkpt>
      <trkpt lat="45.92153" lon="6.45113">
        <ele>1654.1999511719</ele>
        <time>2013-08-21T15:47:45.000Z</time>
      </trkpt>
      <trkpt lat="45.92153" lon="6.45109">
        <ele>1655.1999511719</ele>
        <time>2013-08-21T15:47:48.000Z</time>
      </trkpt>
      <trkpt lat="45.92152" lon="6.45103">
        <ele>1656.1999511719</ele>
        <time>2013-08-21T15:47:54.000Z</time>
      </trkpt>
      <trkpt lat="45.92152" lon="6.45095">
        <ele>1658.4000244141</ele>
        <time>2013-08-21T15:47:59.000Z</time>
      </trkpt>
      <trkpt lat="45.92153" lon="6.45092">
        <ele>1659.5999755859</ele>
        <time>2013-08-21T15:48:01.000Z</time>
      </trkpt>
      <trkpt lat="45.92157" lon="6.45083">
        <ele>1662.5999755859</ele>
        <time>2013-08-21T15:48:08.000Z</time>
      </trkpt>
      <trkpt lat="45.9216" lon="6.45077">
        <ele>1664.5999755859</ele>
        <time>2013-08-21T15:48:14.000Z</time>
      </trkpt>
      <trkpt lat="45.92162" lon="6.45072">
        <ele>1666.1999511719</ele>
        <time>2013-08-21T15:48:18.000Z</time>
      </trkpt>
      <trkpt lat="45.92163" lon="6.45065">
        <ele>1668</ele>
        <time>2013-08-21T15:48:23.000Z</time>
      </trkpt>
      <trkpt lat="45.92163" lon="6.45057">
        <ele>1669.8000488281</ele>
        <time>2013-08-21T15:48:27.000Z</time>
      </trkpt>
      <trkpt lat="45.92164" lon="6.45055">
        <ele>1670.4000244141</ele>
        <time>2013-08-21T15:48:29.000Z</time>
      </trkpt>
      <trkpt lat="45.92161" lon="6.4505">
        <ele>1671</ele>
        <time>2013-08-21T15:48:35.000Z</time>
      </trkpt>
      <trkpt lat="45.92162" lon="6.45041">
        <ele>1673.4000244141</ele>
        <time>2013-08-21T15:48:40.000Z</time>
      </trkpt>
      <trkpt lat="45.92163" lon="6.45039">
        <ele>1673.8000488281</ele>
        <time>2013-08-21T15:48:42.000Z</time>
      </trkpt>
      <trkpt lat="45.92165" lon="6.45036">
        <ele>1675.4000244141</ele>
        <time>2013-08-21T15:48:45.000Z</time>
      </trkpt>
      <trkpt lat="45.92166" lon="6.45022">
        <ele>1678.5999755859</ele>
        <time>2013-08-21T15:48:51.000Z</time>
      </trkpt>
      <trkpt lat="45.92168" lon="6.45008">
        <ele>1681.8000488281</ele>
        <time>2013-08-21T15:48:55.000Z</time>
      </trkpt>
      <trkpt lat="45.92169" lon="6.44992">
        <ele>1685</ele>
        <time>2013-08-21T15:48:59.000Z</time>
      </trkpt>
      <trkpt lat="45.92167" lon="6.44975">
        <ele>1688</ele>
        <time>2013-08-21T15:49:03.000Z</time>
      </trkpt>
      <trkpt lat="45.92168" lon="6.44962">
        <ele>1690</ele>
        <time>2013-08-21T15:49:08.000Z</time>
      </trkpt>
      <trkpt lat="45.92175" lon="6.44957">
        <ele>1690.4000244141</ele>
        <time>2013-08-21T15:49:13.000Z</time>
      </trkpt>
      <trkpt lat="45.92178" lon="6.44955">
        <ele>1690.5999755859</ele>
        <time>2013-08-21T15:49:16.000Z</time>
      </trkpt>
      <trkpt lat="45.92175" lon="6.44944">
        <ele>1692.5999755859</ele>
        <time>2013-08-21T15:49:20.000Z</time>
      </trkpt>
      <trkpt lat="45.92173" lon="6.44934">
        <ele>1694.5999755859</ele>
        <time>2013-08-21T15:49:23.000Z</time>
      </trkpt>
      <trkpt lat="45.92171" lon="6.44918">
        <ele>1697.5999755859</ele>
        <time>2013-08-21T15:49:28.000Z</time>
      </trkpt>
      <trkpt lat="45.92171" lon="6.44908">
        <ele>1698.4000244141</ele>
        <time>2013-08-21T15:49:31.000Z</time>
      </trkpt>
      <trkpt lat="45.92177" lon="6.44899">
        <ele>1698.8000488281</ele>
        <time>2013-08-21T15:49:37.000Z</time>
      </trkpt>
      <trkpt lat="45.92181" lon="6.44895">
        <ele>1699</ele>
        <time>2013-08-21T15:49:42.000Z</time>
      </trkpt>
      <trkpt lat="45.92181" lon="6.4489">
        <ele>1699.1999511719</ele>
        <time>2013-08-21T15:49:47.000Z</time>
      </trkpt>
      <trkpt lat="45.9218" lon="6.44883">
        <ele>1699.8000488281</ele>
        <time>2013-08-21T15:49:52.000Z</time>
      </trkpt>
      <trkpt lat="45.9218" lon="6.44879">
        <ele>1700.1999511719</ele>
        <time>2013-08-21T15:49:56.000Z</time>
      </trkpt>
      <trkpt lat="45.9218" lon="6.4487">
        <ele>1701</ele>
        <time>2013-08-21T15:50:03.000Z</time>
      </trkpt>
      <trkpt lat="45.9218" lon="6.44865">
        <ele>1701.4000244141</ele>
        <time>2013-08-21T15:50:07.000Z</time>
      </trkpt>
      <trkpt lat="45.92178" lon="6.44857">
        <ele>1702.1999511719</ele>
        <time>2013-08-21T15:50:13.000Z</time>
      </trkpt>
      <trkpt lat="45.92179" lon="6.44853">
        <ele>1702.4000244141</ele>
        <time>2013-08-21T15:50:15.000Z</time>
      </trkpt>
      <trkpt lat="45.92179" lon="6.44844">
        <ele>1703.1999511719</ele>
        <time>2013-08-21T15:50:21.000Z</time>
      </trkpt>
      <trkpt lat="45.9218" lon="6.44841">
        <ele>1703.1999511719</ele>
        <time>2013-08-21T15:50:23.000Z</time>
      </trkpt>
      <trkpt lat="45.92181" lon="6.44835">
        <ele>1703.5999755859</ele>
        <time>2013-08-21T15:50:29.000Z</time>
      </trkpt>
      <trkpt lat="45.92182" lon="6.44824">
        <ele>1702.8000488281</ele>
        <time>2013-08-21T15:50:37.000Z</time>
      </trkpt>
      <trkpt lat="45.92182" lon="6.44818">
        <ele>1702.5999755859</ele>
        <time>2013-08-21T15:50:41.000Z</time>
      </trkpt>
      <trkpt lat="45.92181" lon="6.44809">
        <ele>1702.4000244141</ele>
        <time>2013-08-21T15:50:48.000Z</time>
      </trkpt>
      <trkpt lat="45.92179" lon="6.44802">
        <ele>1702.5999755859</ele>
        <time>2013-08-21T15:50:53.000Z</time>
      </trkpt>
      <trkpt lat="45.92178" lon="6.44795">
        <ele>1702.4000244141</ele>
        <time>2013-08-21T15:50:58.000Z</time>
      </trkpt>
      <trkpt lat="45.92181" lon="6.44792">
        <ele>1701.1999511719</ele>
        <time>2013-08-21T15:51:04.000Z</time>
      </trkpt>
      <trkpt lat="45.92184" lon="6.44794">
        <ele>1700.8000488281</ele>
        <time>2013-08-21T15:51:06.000Z</time>
      </trkpt>
      <trkpt lat="45.92186" lon="6.44801">
        <ele>1700.5999755859</ele>
        <time>2013-08-21T15:51:11.000Z</time>
      </trkpt>
      <trkpt lat="45.92189" lon="6.448">
        <ele>1700</ele>
        <time>2013-08-21T15:51:14.000Z</time>
      </trkpt>
      <trkpt lat="45.92197" lon="6.44796">
        <ele>1698</ele>
        <time>2013-08-21T15:51:22.000Z</time>
      </trkpt>
      <trkpt lat="45.92198" lon="6.44796">
        <ele>1697.4000244141</ele>
        <time>2013-08-21T15:51:24.000Z</time>
      </trkpt>
      <trkpt lat="45.92205" lon="6.44797">
        <ele>1696</ele>
        <time>2013-08-21T15:51:30.000Z</time>
      </trkpt>
      <trkpt lat="45.9221" lon="6.44802">
        <ele>1695.5999755859</ele>
        <time>2013-08-21T15:51:36.000Z</time>
      </trkpt>
      <trkpt lat="45.92213" lon="6.44807">
        <ele>1695.4000244141</ele>
        <time>2013-08-21T15:51:42.000Z</time>
      </trkpt>
      <trkpt lat="45.92217" lon="6.44816">
        <ele>1695.8000488281</ele>
        <time>2013-08-21T15:51:48.000Z</time>
      </trkpt>
      <trkpt lat="45.92218" lon="6.44819">
        <ele>1696</ele>
        <time>2013-08-21T15:51:50.000Z</time>
      </trkpt>
      <trkpt lat="45.92219" lon="6.44825">
        <ele>1696.5999755859</ele>
        <time>2013-08-21T15:51:55.000Z</time>
      </trkpt>
      <trkpt lat="45.92218" lon="6.44825">
        <ele>1696.8000488281</ele>
        <time>2013-08-21T15:51:56.000Z</time>
      </trkpt>
      <trkpt lat="45.92217" lon="6.44827">
        <ele>1697.1999511719</ele>
        <time>2013-08-21T15:51:59.000Z</time>
      </trkpt>
      <trkpt lat="45.92208" lon="6.44822">
        <ele>1698.1999511719</ele>
        <time>2013-08-21T15:57:15.000Z</time>
      </trkpt>
      <trkpt lat="45.92214" lon="6.44825">
        <ele>1697.4000244141</ele>
        <time>2013-08-21T15:57:19.000Z</time>
      </trkpt>
      <trkpt lat="45.92217" lon="6.4482">
        <ele>1696.4000244141</ele>
        <time>2013-08-21T15:57:22.000Z</time>
      </trkpt>
      <trkpt lat="45.92213" lon="6.44808">
        <ele>1695.5999755859</ele>
        <time>2013-08-21T15:57:27.000Z</time>
      </trkpt>
      <trkpt lat="45.92211" lon="6.44802">
        <ele>1695.1999511719</ele>
        <time>2013-08-21T15:57:31.000Z</time>
      </trkpt>
      <trkpt lat="45.92207" lon="6.44796">
        <ele>1695.4000244141</ele>
        <time>2013-08-21T15:57:37.000Z</time>
      </trkpt>
      <trkpt lat="45.92201" lon="6.44794">
        <ele>1696.8000488281</ele>
        <time>2013-08-21T15:57:41.000Z</time>
      </trkpt>
      <trkpt lat="45.92196" lon="6.44794">
        <ele>1698</ele>
        <time>2013-08-21T15:57:45.000Z</time>
      </trkpt>
      <trkpt lat="45.92192" lon="6.44795">
        <ele>1699</ele>
        <time>2013-08-21T15:57:48.000Z</time>
      </trkpt>
      <trkpt lat="45.9219" lon="6.44796">
        <ele>1699.5999755859</ele>
        <time>2013-08-21T15:57:51.000Z</time>
      </trkpt>
      <trkpt lat="45.92184" lon="6.44793">
        <ele>1700.8000488281</ele>
        <time>2013-08-21T15:57:56.000Z</time>
      </trkpt>
      <trkpt lat="45.92176" lon="6.4479">
        <ele>1702.4000244141</ele>
        <time>2013-08-21T15:58:00.000Z</time>
      </trkpt>
      <trkpt lat="45.92175" lon="6.44796">
        <ele>1703</ele>
        <time>2013-08-21T15:58:04.000Z</time>
      </trkpt>
      <trkpt lat="45.92177" lon="6.44805">
        <ele>1703</ele>
        <time>2013-08-21T15:58:09.000Z</time>
      </trkpt>
      <trkpt lat="45.92177" lon="6.44807">
        <ele>1703</ele>
        <time>2013-08-21T15:58:10.000Z</time>
      </trkpt>
      <trkpt lat="45.92178" lon="6.4482">
        <ele>1703.5999755859</ele>
        <time>2013-08-21T15:58:16.000Z</time>
      </trkpt>
      <trkpt lat="45.92178" lon="6.44828">
        <ele>1703.8000488281</ele>
        <time>2013-08-21T15:58:21.000Z</time>
      </trkpt>
      <trkpt lat="45.92179" lon="6.44832">
        <ele>1703.8000488281</ele>
        <time>2013-08-21T15:58:24.000Z</time>
      </trkpt>
      <trkpt lat="45.9218" lon="6.44842">
        <ele>1703</ele>
        <time>2013-08-21T15:58:30.000Z</time>
      </trkpt>
      <trkpt lat="45.92179" lon="6.4485">
        <ele>1702.8000488281</ele>
        <time>2013-08-21T15:58:34.000Z</time>
      </trkpt>
      <trkpt lat="45.92178" lon="6.44861">
        <ele>1702</ele>
        <time>2013-08-21T15:58:38.000Z</time>
      </trkpt>
      <trkpt lat="45.92177" lon="6.44869">
        <ele>1701.4000244141</ele>
        <time>2013-08-21T15:58:42.000Z</time>
      </trkpt>
      <trkpt lat="45.92178" lon="6.44877">
        <ele>1700.5999755859</ele>
        <time>2013-08-21T15:58:46.000Z</time>
      </trkpt>
      <trkpt lat="45.9218" lon="6.4489">
        <ele>1699.4000244141</ele>
        <time>2013-08-21T15:58:52.000Z</time>
      </trkpt>
      <trkpt lat="45.92177" lon="6.44895">
        <ele>1699.1999511719</ele>
        <time>2013-08-21T15:58:55.000Z</time>
      </trkpt>
      <trkpt lat="45.92175" lon="6.44909">
        <ele>1698.1999511719</ele>
        <time>2013-08-21T15:58:59.000Z</time>
      </trkpt>
      <trkpt lat="45.92184" lon="6.44935">
        <ele>1693.5999755859</ele>
        <time>2013-08-21T15:59:04.000Z</time>
      </trkpt>
      <trkpt lat="45.92183" lon="6.44945">
        <ele>1691.8000488281</ele>
        <time>2013-08-21T15:59:07.000Z</time>
      </trkpt>
      <trkpt lat="45.92177" lon="6.44949">
        <ele>1691.4000244141</ele>
        <time>2013-08-21T15:59:10.000Z</time>
      </trkpt>
      <trkpt lat="45.9217" lon="6.44963">
        <ele>1689.8000488281</ele>
        <time>2013-08-21T15:59:15.000Z</time>
      </trkpt>
      <trkpt lat="45.92166" lon="6.44984">
        <ele>1686.5999755859</ele>
        <time>2013-08-21T15:59:19.000Z</time>
      </trkpt>
      <trkpt lat="45.92165" lon="6.45001">
        <ele>1683.1999511719</ele>
        <time>2013-08-21T15:59:23.000Z</time>
      </trkpt>
      <trkpt lat="45.92163" lon="6.45022">
        <ele>1677.5999755859</ele>
        <time>2013-08-21T15:59:29.000Z</time>
      </trkpt>
      <trkpt lat="45.92162" lon="6.45025">
        <ele>1676.4000244141</ele>
        <time>2013-08-21T15:59:30.000Z</time>
      </trkpt>
      <trkpt lat="45.92162" lon="6.45042">
        <ele>1672.8000488281</ele>
        <time>2013-08-21T15:59:36.000Z</time>
      </trkpt>
      <trkpt lat="45.92163" lon="6.45055">
        <ele>1670.4000244141</ele>
        <time>2013-08-21T15:59:40.000Z</time>
      </trkpt>
      <trkpt lat="45.92163" lon="6.45063">
        <ele>1668.4000244141</ele>
        <time>2013-08-21T15:59:44.000Z</time>
      </trkpt>
      <trkpt lat="45.92158" lon="6.45069">
        <ele>1666</ele>
        <time>2013-08-21T15:59:48.000Z</time>
      </trkpt>
      <trkpt lat="45.92155" lon="6.45075">
        <ele>1663.8000488281</ele>
        <time>2013-08-21T15:59:51.000Z</time>
      </trkpt>
      <trkpt lat="45.92152" lon="6.4509">
        <ele>1659.8000488281</ele>
        <time>2013-08-21T15:59:56.000Z</time>
      </trkpt>
      <trkpt lat="45.92154" lon="6.45108">
        <ele>1655.5999755859</ele>
        <time>2013-08-21T16:00:03.000Z</time>
      </trkpt>
      <trkpt lat="45.92154" lon="6.4512">
        <ele>1652.1999511719</ele>
        <time>2013-08-21T16:00:08.000Z</time>
      </trkpt>
      <trkpt lat="45.92152" lon="6.45131">
        <ele>1649.4000244141</ele>
        <time>2013-08-21T16:00:14.000Z</time>
      </trkpt>
      <trkpt lat="45.92144" lon="6.45135">
        <ele>1647.5999755859</ele>
        <time>2013-08-21T16:00:19.000Z</time>
      </trkpt>
      <trkpt lat="45.92141" lon="6.45144">
        <ele>1645.4000244141</ele>
        <time>2013-08-21T16:00:23.000Z</time>
      </trkpt>
      <trkpt lat="45.92141" lon="6.45147">
        <ele>1644.8000488281</ele>
        <time>2013-08-21T16:00:24.000Z</time>
      </trkpt>
      <trkpt lat="45.92141" lon="6.45166">
        <ele>1640.5999755859</ele>
        <time>2013-08-21T16:00:29.000Z</time>
      </trkpt>
      <trkpt lat="45.92135" lon="6.45183">
        <ele>1636.8000488281</ele>
        <time>2013-08-21T16:00:33.000Z</time>
      </trkpt>
      <trkpt lat="45.92127" lon="6.45192">
        <ele>1635.5999755859</ele>
        <time>2013-08-21T16:00:36.000Z</time>
      </trkpt>
      <trkpt lat="45.92123" lon="6.45197">
        <ele>1635</ele>
        <time>2013-08-21T16:00:38.000Z</time>
      </trkpt>
      <trkpt lat="45.92116" lon="6.45203">
        <ele>1634.8000488281</ele>
        <time>2013-08-21T16:00:44.000Z</time>
      </trkpt>
      <trkpt lat="45.92111" lon="6.4521">
        <ele>1634.4000244141</ele>
        <time>2013-08-21T16:00:48.000Z</time>
      </trkpt>
      <trkpt lat="45.92107" lon="6.45221">
        <ele>1633.8000488281</ele>
        <time>2013-08-21T16:00:53.000Z</time>
      </trkpt>
      <trkpt lat="45.921" lon="6.45235">
        <ele>1633.4000244141</ele>
        <time>2013-08-21T16:00:58.000Z</time>
      </trkpt>
      <trkpt lat="45.9209" lon="6.45247">
        <ele>1635</ele>
        <time>2013-08-21T16:01:02.000Z</time>
      </trkpt>
      <trkpt lat="45.9208" lon="6.45267">
        <ele>1632.8000488281</ele>
        <time>2013-08-21T16:01:07.000Z</time>
      </trkpt>
      <trkpt lat="45.9207" lon="6.45277">
        <ele>1629.4000244141</ele>
        <time>2013-08-21T16:01:11.000Z</time>
      </trkpt>
      <trkpt lat="45.92064" lon="6.45288">
        <ele>1626.5999755859</ele>
        <time>2013-08-21T16:01:15.000Z</time>
      </trkpt>
      <trkpt lat="45.92061" lon="6.45304">
        <ele>1623.4000244141</ele>
        <time>2013-08-21T16:01:20.000Z</time>
      </trkpt>
      <trkpt lat="45.92059" lon="6.45327">
        <ele>1619.1999511719</ele>
        <time>2013-08-21T16:01:27.000Z</time>
      </trkpt>
      <trkpt lat="45.9206" lon="6.45332">
        <ele>1618.4000244141</ele>
        <time>2013-08-21T16:01:29.000Z</time>
      </trkpt>
      <trkpt lat="45.92059" lon="6.45342">
        <ele>1616</ele>
        <time>2013-08-21T16:01:34.000Z</time>
      </trkpt>
      <trkpt lat="45.92057" lon="6.45349">
        <ele>1614.4000244141</ele>
        <time>2013-08-21T16:01:38.000Z</time>
      </trkpt>
      <trkpt lat="45.92057" lon="6.45359">
        <ele>1612.1999511719</ele>
        <time>2013-08-21T16:01:44.000Z</time>
      </trkpt>
      <trkpt lat="45.92055" lon="6.45363">
        <ele>1611.4000244141</ele>
        <time>2013-08-21T16:01:47.000Z</time>
      </trkpt>
      <trkpt lat="45.92052" lon="6.45372">
        <ele>1609.4000244141</ele>
        <time>2013-08-21T16:01:52.000Z</time>
      </trkpt>
      <trkpt lat="45.92052" lon="6.45373">
        <ele>1609</ele>
        <time>2013-08-21T16:01:53.000Z</time>
      </trkpt>
      <trkpt lat="45.9205" lon="6.45374">
        <ele>1608.8000488281</ele>
        <time>2013-08-21T16:01:56.000Z</time>
      </trkpt>
      <trkpt lat="45.92046" lon="6.45378">
        <ele>1608</ele>
        <time>2013-08-21T16:02:01.000Z</time>
      </trkpt>
      <trkpt lat="45.9204" lon="6.4538">
        <ele>1607.5999755859</ele>
        <time>2013-08-21T16:02:06.000Z</time>
      </trkpt>
      <trkpt lat="45.92035" lon="6.45395">
        <ele>1604.5999755859</ele>
        <time>2013-08-21T16:02:12.000Z</time>
      </trkpt>
      <trkpt lat="45.92036" lon="6.45415">
        <ele>1600.5999755859</ele>
        <time>2013-08-21T16:02:17.000Z</time>
      </trkpt>
      <trkpt lat="45.92037" lon="6.4542">
        <ele>1599.4000244141</ele>
        <time>2013-08-21T16:02:19.000Z</time>
      </trkpt>
      <trkpt lat="45.92047" lon="6.45427">
        <ele>1597.8000488281</ele>
        <time>2013-08-21T16:02:24.000Z</time>
      </trkpt>
      <trkpt lat="45.92052" lon="6.45432">
        <ele>1596.5999755859</ele>
        <time>2013-08-21T16:02:26.000Z</time>
      </trkpt>
      <trkpt lat="45.92051" lon="6.45449">
        <ele>1593.4000244141</ele>
        <time>2013-08-21T16:02:30.000Z</time>
      </trkpt>
      <trkpt lat="45.92049" lon="6.45471">
        <ele>1589.4000244141</ele>
        <time>2013-08-21T16:02:35.000Z</time>
      </trkpt>
      <trkpt lat="45.92048" lon="6.45491">
        <ele>1586</ele>
        <time>2013-08-21T16:02:40.000Z</time>
      </trkpt>
      <trkpt lat="45.9204" lon="6.45511">
        <ele>1584</ele>
        <time>2013-08-21T16:02:45.000Z</time>
      </trkpt>
      <trkpt lat="45.92038" lon="6.45515">
        <ele>1583.8000488281</ele>
        <time>2013-08-21T16:02:46.000Z</time>
      </trkpt>
      <trkpt lat="45.92036" lon="6.45536">
        <ele>1581.8000488281</ele>
        <time>2013-08-21T16:02:51.000Z</time>
      </trkpt>
      <trkpt lat="45.92036" lon="6.45539">
        <ele>1581.5999755859</ele>
        <time>2013-08-21T16:02:52.000Z</time>
      </trkpt>
      <trkpt lat="45.92032" lon="6.4556">
        <ele>1579.5999755859</ele>
        <time>2013-08-21T16:02:57.000Z</time>
      </trkpt>
      <trkpt lat="45.92035" lon="6.45588">
        <ele>1576.8000488281</ele>
        <time>2013-08-21T16:03:02.000Z</time>
      </trkpt>
      <trkpt lat="45.92036" lon="6.45604">
        <ele>1576.1999511719</ele>
        <time>2013-08-21T16:03:05.000Z</time>
      </trkpt>
      <trkpt lat="45.9204" lon="6.45623">
        <ele>1575.1999511719</ele>
        <time>2013-08-21T16:03:09.000Z</time>
      </trkpt>
      <trkpt lat="45.92042" lon="6.45644">
        <ele>1574.4000244141</ele>
        <time>2013-08-21T16:03:14.000Z</time>
      </trkpt>
      <trkpt lat="45.92042" lon="6.45662">
        <ele>1573.5999755859</ele>
        <time>2013-08-21T16:03:19.000Z</time>
      </trkpt>
      <trkpt lat="45.92042" lon="6.45684">
        <ele>1574</ele>
        <time>2013-08-21T16:03:24.000Z</time>
      </trkpt>
      <trkpt lat="45.92043" lon="6.45693">
        <ele>1574.4000244141</ele>
        <time>2013-08-21T16:03:26.000Z</time>
      </trkpt>
      <trkpt lat="45.92044" lon="6.45707">
        <ele>1574.8000488281</ele>
        <time>2013-08-21T16:03:29.000Z</time>
      </trkpt>
      <trkpt lat="45.92045" lon="6.45726">
        <ele>1575.5999755859</ele>
        <time>2013-08-21T16:03:33.000Z</time>
      </trkpt>
      <trkpt lat="45.9204" lon="6.45739">
        <ele>1576</ele>
        <time>2013-08-21T16:03:37.000Z</time>
      </trkpt>
      <trkpt lat="45.92037" lon="6.45747">
        <ele>1576.1999511719</ele>
        <time>2013-08-21T16:03:40.000Z</time>
      </trkpt>
      <trkpt lat="45.9203" lon="6.45763">
        <ele>1576.8000488281</ele>
        <time>2013-08-21T16:03:47.000Z</time>
      </trkpt>
      <trkpt lat="45.9203" lon="6.45765">
        <ele>1576.8000488281</ele>
        <time>2013-08-21T16:03:48.000Z</time>
      </trkpt>
      <trkpt lat="45.92021" lon="6.4577">
        <ele>1576.8000488281</ele>
        <time>2013-08-21T16:03:52.000Z</time>
      </trkpt>
      <trkpt lat="45.92009" lon="6.45773">
        <ele>1576.5999755859</ele>
        <time>2013-08-21T16:03:58.000Z</time>
      </trkpt>
      <trkpt lat="45.91999" lon="6.45778">
        <ele>1576.4000244141</ele>
        <time>2013-08-21T16:04:03.000Z</time>
      </trkpt>
      <trkpt lat="45.91992" lon="6.4579">
        <ele>1575.5999755859</ele>
        <time>2013-08-21T16:04:08.000Z</time>
      </trkpt>
      <trkpt lat="45.91991" lon="6.45797">
        <ele>1575.5999755859</ele>
        <time>2013-08-21T16:04:10.000Z</time>
      </trkpt>
      <trkpt lat="45.91981" lon="6.4581">
        <ele>1574</ele>
        <time>2013-08-21T16:04:15.000Z</time>
      </trkpt>
      <trkpt lat="45.91979" lon="6.45811">
        <ele>1573.4000244141</ele>
        <time>2013-08-21T16:04:16.000Z</time>
      </trkpt>
      <trkpt lat="45.91969" lon="6.45805">
        <ele>1570.8000488281</ele>
        <time>2013-08-21T16:04:20.000Z</time>
      </trkpt>
      <trkpt lat="45.91967" lon="6.45802">
        <ele>1570.1999511719</ele>
        <time>2013-08-21T16:04:21.000Z</time>
      </trkpt>
      <trkpt lat="45.91958" lon="6.4578">
        <ele>1567.4000244141</ele>
        <time>2013-08-21T16:04:27.000Z</time>
      </trkpt>
      <trkpt lat="45.91952" lon="6.45764">
        <ele>1566</ele>
        <time>2013-08-21T16:04:31.000Z</time>
      </trkpt>
      <trkpt lat="45.91953" lon="6.45735">
        <ele>1565.1999511719</ele>
        <time>2013-08-21T16:04:37.000Z</time>
      </trkpt>
      <trkpt lat="45.91954" lon="6.45727">
        <ele>1565</ele>
        <time>2013-08-21T16:04:39.000Z</time>
      </trkpt>
      <trkpt lat="45.91958" lon="6.45708">
        <ele>1565.1999511719</ele>
        <time>2013-08-21T16:04:44.000Z</time>
      </trkpt>
      <trkpt lat="45.91957" lon="6.4569">
        <ele>1564.1999511719</ele>
        <time>2013-08-21T16:04:48.000Z</time>
      </trkpt>
      <trkpt lat="45.91956" lon="6.45677">
        <ele>1563.4000244141</ele>
        <time>2013-08-21T16:04:51.000Z</time>
      </trkpt>
      <trkpt lat="45.91949" lon="6.45652">
        <ele>1561.5999755859</ele>
        <time>2013-08-21T16:04:57.000Z</time>
      </trkpt>
      <trkpt lat="45.91944" lon="6.4563">
        <ele>1560.8000488281</ele>
        <time>2013-08-21T16:05:02.000Z</time>
      </trkpt>
      <trkpt lat="45.9194" lon="6.45613">
        <ele>1560</ele>
        <time>2013-08-21T16:05:07.000Z</time>
      </trkpt>
      <trkpt lat="45.91936" lon="6.45596">
        <ele>1559.1999511719</ele>
        <time>2013-08-21T16:05:11.000Z</time>
      </trkpt>
      <trkpt lat="45.91932" lon="6.45584">
        <ele>1558.1999511719</ele>
        <time>2013-08-21T16:05:14.000Z</time>
      </trkpt>
      <trkpt lat="45.91923" lon="6.4557">
        <ele>1557.1999511719</ele>
        <time>2013-08-21T16:05:19.000Z</time>
      </trkpt>
      <trkpt lat="45.91915" lon="6.45566">
        <ele>1554.8000488281</ele>
        <time>2013-08-21T16:05:23.000Z</time>
      </trkpt>
      <trkpt lat="45.9191" lon="6.45569">
        <ele>1552.5999755859</ele>
        <time>2013-08-21T16:05:26.000Z</time>
      </trkpt>
      <trkpt lat="45.91904" lon="6.45582">
        <ele>1549.1999511719</ele>
        <time>2013-08-21T16:05:30.000Z</time>
      </trkpt>
      <trkpt lat="45.91899" lon="6.45598">
        <ele>1547.1999511719</ele>
        <time>2013-08-21T16:05:35.000Z</time>
      </trkpt>
      <trkpt lat="45.91899" lon="6.45612">
        <ele>1547.4000244141</ele>
        <time>2013-08-21T16:05:39.000Z</time>
      </trkpt>
      <trkpt lat="45.91897" lon="6.45633">
        <ele>1546.5999755859</ele>
        <time>2013-08-21T16:05:44.000Z</time>
      </trkpt>
      <trkpt lat="45.91892" lon="6.45649">
        <ele>1545</ele>
        <time>2013-08-21T16:05:48.000Z</time>
      </trkpt>
      <trkpt lat="45.91892" lon="6.45667">
        <ele>1544.8000488281</ele>
        <time>2013-08-21T16:05:53.000Z</time>
      </trkpt>
      <trkpt lat="45.9189" lon="6.45684">
        <ele>1545.1999511719</ele>
        <time>2013-08-21T16:05:58.000Z</time>
      </trkpt>
      <trkpt lat="45.91888" lon="6.45688">
        <ele>1545</ele>
        <time>2013-08-21T16:05:59.000Z</time>
      </trkpt>
      <trkpt lat="45.91875" lon="6.45702">
        <ele>1541.1999511719</ele>
        <time>2013-08-21T16:06:04.000Z</time>
      </trkpt>
      <trkpt lat="45.9186" lon="6.4571">
        <ele>1536.5999755859</ele>
        <time>2013-08-21T16:06:09.000Z</time>
      </trkpt>
      <trkpt lat="45.91847" lon="6.45711">
        <ele>1532</ele>
        <time>2013-08-21T16:06:13.000Z</time>
      </trkpt>
      <trkpt lat="45.91834" lon="6.45712">
        <ele>1527.4000244141</ele>
        <time>2013-08-21T16:06:18.000Z</time>
      </trkpt>
      <trkpt lat="45.91821" lon="6.45718">
        <ele>1522</ele>
        <time>2013-08-21T16:06:22.000Z</time>
      </trkpt>
      <trkpt lat="45.91811" lon="6.45727">
        <ele>1517.8000488281</ele>
        <time>2013-08-21T16:06:26.000Z</time>
      </trkpt>
      <trkpt lat="45.91802" lon="6.45739">
        <ele>1514.8000488281</ele>
        <time>2013-08-21T16:06:31.000Z</time>
      </trkpt>
      <trkpt lat="45.91794" lon="6.45752">
        <ele>1512.5999755859</ele>
        <time>2013-08-21T16:06:36.000Z</time>
      </trkpt>
      <trkpt lat="45.91793" lon="6.45779">
        <ele>1511.4000244141</ele>
        <time>2013-08-21T16:06:43.000Z</time>
      </trkpt>
      <trkpt lat="45.91793" lon="6.45793">
        <ele>1511.4000244141</ele>
        <time>2013-08-21T16:06:47.000Z</time>
      </trkpt>
      <trkpt lat="45.91795" lon="6.45799">
        <ele>1511.8000488281</ele>
        <time>2013-08-21T16:06:49.000Z</time>
      </trkpt>
      <trkpt lat="45.91796" lon="6.45822">
        <ele>1512</ele>
        <time>2013-08-21T16:06:54.000Z</time>
      </trkpt>
      <trkpt lat="45.918" lon="6.45838">
        <ele>1513.1999511719</ele>
        <time>2013-08-21T16:06:58.000Z</time>
      </trkpt>
      <trkpt lat="45.91799" lon="6.45842">
        <ele>1512.5999755859</ele>
        <time>2013-08-21T16:06:59.000Z</time>
      </trkpt>
      <trkpt lat="45.91792" lon="6.45862">
        <ele>1507.4000244141</ele>
        <time>2013-08-21T16:07:04.000Z</time>
      </trkpt>
      <trkpt lat="45.91786" lon="6.45883">
        <ele>1503</ele>
        <time>2013-08-21T16:07:09.000Z</time>
      </trkpt>
      <trkpt lat="45.91783" lon="6.45896">
        <ele>1500.8000488281</ele>
        <time>2013-08-21T16:07:13.000Z</time>
      </trkpt>
      <trkpt lat="45.9178" lon="6.45915">
        <ele>1497.8000488281</ele>
        <time>2013-08-21T16:07:18.000Z</time>
      </trkpt>
      <trkpt lat="45.91779" lon="6.45934">
        <ele>1495</ele>
        <time>2013-08-21T16:07:24.000Z</time>
      </trkpt>
      <trkpt lat="45.91777" lon="6.45953">
        <ele>1491.4000244141</ele>
        <time>2013-08-21T16:07:29.000Z</time>
      </trkpt>
      <trkpt lat="45.91777" lon="6.45966">
        <ele>1489.5999755859</ele>
        <time>2013-08-21T16:07:32.000Z</time>
      </trkpt>
      <trkpt lat="45.91781" lon="6.45981">
        <ele>1489</ele>
        <time>2013-08-21T16:07:36.000Z</time>
      </trkpt>
      <trkpt lat="45.91781" lon="6.45985">
        <ele>1488.4000244141</ele>
        <time>2013-08-21T16:07:37.000Z</time>
      </trkpt>
      <trkpt lat="45.91776" lon="6.46008">
        <ele>1483.1999511719</ele>
        <time>2013-08-21T16:07:43.000Z</time>
      </trkpt>
      <trkpt lat="45.91773" lon="6.46021">
        <ele>1480</ele>
        <time>2013-08-21T16:07:47.000Z</time>
      </trkpt>
      <trkpt lat="45.91772" lon="6.46038">
        <ele>1477.1999511719</ele>
        <time>2013-08-21T16:07:52.000Z</time>
      </trkpt>
      <trkpt lat="45.91772" lon="6.46042">
        <ele>1476.8000488281</ele>
        <time>2013-08-21T16:07:54.000Z</time>
      </trkpt>
      <trkpt lat="45.91771" lon="6.46043">
        <ele>1476</ele>
        <time>2013-08-21T16:07:56.000Z</time>
      </trkpt>
      <trkpt lat="45.91763" lon="6.46039">
        <ele>1473.8000488281</ele>
        <time>2013-08-21T16:08:00.000Z</time>
      </trkpt>
      <trkpt lat="45.91756" lon="6.46032">
        <ele>1472.4000244141</ele>
        <time>2013-08-21T16:08:04.000Z</time>
      </trkpt>
      <trkpt lat="45.91751" lon="6.46024">
        <ele>1471.1999511719</ele>
        <time>2013-08-21T16:08:07.000Z</time>
      </trkpt>
      <trkpt lat="45.9174" lon="6.46016">
        <ele>1467.1999511719</ele>
        <time>2013-08-21T16:08:12.000Z</time>
      </trkpt>
      <trkpt lat="45.91735" lon="6.46012">
        <ele>1465.5999755859</ele>
        <time>2013-08-21T16:08:14.000Z</time>
      </trkpt>
      <trkpt lat="45.9172" lon="6.46">
        <ele>1459.8000488281</ele>
        <time>2013-08-21T16:08:20.000Z</time>
      </trkpt>
      <trkpt lat="45.91711" lon="6.45992">
        <ele>1456.4000244141</ele>
        <time>2013-08-21T16:08:24.000Z</time>
      </trkpt>
      <trkpt lat="45.9171" lon="6.45988">
        <ele>1456.1999511719</ele>
        <time>2013-08-21T16:08:25.000Z</time>
      </trkpt>
      <trkpt lat="45.91703" lon="6.45978">
        <ele>1454.1999511719</ele>
        <time>2013-08-21T16:08:29.000Z</time>
      </trkpt>
      <trkpt lat="45.917" lon="6.4597">
        <ele>1454</ele>
        <time>2013-08-21T16:08:31.000Z</time>
      </trkpt>
      <trkpt lat="45.91689" lon="6.45951">
        <ele>1451.4000244141</ele>
        <time>2013-08-21T16:08:37.000Z</time>
      </trkpt>
      <trkpt lat="45.91684" lon="6.45937">
        <ele>1450.5999755859</ele>
        <time>2013-08-21T16:08:42.000Z</time>
      </trkpt>
      <trkpt lat="45.91682" lon="6.45932">
        <ele>1450.4000244141</ele>
        <time>2013-08-21T16:08:44.000Z</time>
      </trkpt>
      <trkpt lat="45.91674" lon="6.4593">
        <ele>1446.8000488281</ele>
        <time>2013-08-21T16:08:49.000Z</time>
      </trkpt>
      <trkpt lat="45.91673" lon="6.45933">
        <ele>1445.8000488281</ele>
        <time>2013-08-21T16:08:50.000Z</time>
      </trkpt>
      <trkpt lat="45.91671" lon="6.45943">
        <ele>1443.5999755859</ele>
        <time>2013-08-21T16:08:55.000Z</time>
      </trkpt>
      <trkpt lat="45.91672" lon="6.45956">
        <ele>1442.4000244141</ele>
        <time>2013-08-21T16:08:59.000Z</time>
      </trkpt>
      <trkpt lat="45.91674" lon="6.45975">
        <ele>1440.8000488281</ele>
        <time>2013-08-21T16:09:05.000Z</time>
      </trkpt>
      <trkpt lat="45.91672" lon="6.45991">
        <ele>1437.8000488281</ele>
        <time>2013-08-21T16:09:11.000Z</time>
      </trkpt>
      <trkpt lat="45.91671" lon="6.46008">
        <ele>1435</ele>
        <time>2013-08-21T16:09:16.000Z</time>
      </trkpt>
      <trkpt lat="45.9167" lon="6.46018">
        <ele>1433.8000488281</ele>
        <time>2013-08-21T16:09:20.000Z</time>
      </trkpt>
      <trkpt lat="45.9167" lon="6.46033">
        <ele>1432</ele>
        <time>2013-08-21T16:09:25.000Z</time>
      </trkpt>
      <trkpt lat="45.91669" lon="6.46037">
        <ele>1431.5999755859</ele>
        <time>2013-08-21T16:09:26.000Z</time>
      </trkpt>
      <trkpt lat="45.91665" lon="6.46054">
        <ele>1428.1999511719</ele>
        <time>2013-08-21T16:09:30.000Z</time>
      </trkpt>
      <trkpt lat="45.91661" lon="6.46071">
        <ele>1424.1999511719</ele>
        <time>2013-08-21T16:09:36.000Z</time>
      </trkpt>
      <trkpt lat="45.91658" lon="6.46078">
        <ele>1421.8000488281</ele>
        <time>2013-08-21T16:09:39.000Z</time>
      </trkpt>
      <trkpt lat="45.91651" lon="6.46091">
        <ele>1416.8000488281</ele>
        <time>2013-08-21T16:09:44.000Z</time>
      </trkpt>
      <trkpt lat="45.91644" lon="6.46105">
        <ele>1412.5999755859</ele>
        <time>2013-08-21T16:09:49.000Z</time>
      </trkpt>
      <trkpt lat="45.91638" lon="6.4612">
        <ele>1408.4000244141</ele>
        <time>2013-08-21T16:09:54.000Z</time>
      </trkpt>
      <trkpt lat="45.91637" lon="6.4613">
        <ele>1407.5999755859</ele>
        <time>2013-08-21T16:09:58.000Z</time>
      </trkpt>
      <trkpt lat="45.91637" lon="6.46132">
        <ele>1407.4000244141</ele>
        <time>2013-08-21T16:09:59.000Z</time>
      </trkpt>
      <trkpt lat="45.91639" lon="6.46143">
        <ele>1408</ele>
        <time>2013-08-21T16:10:04.000Z</time>
      </trkpt>
      <trkpt lat="45.91637" lon="6.46152">
        <ele>1406.8000488281</ele>
        <time>2013-08-21T16:10:07.000Z</time>
      </trkpt>
      <trkpt lat="45.91633" lon="6.46156">
        <ele>1404.8000488281</ele>
        <time>2013-08-21T16:10:11.000Z</time>
      </trkpt>
      <trkpt lat="45.91631" lon="6.46155">
        <ele>1403.8000488281</ele>
        <time>2013-08-21T16:10:14.000Z</time>
      </trkpt>
      <trkpt lat="45.91622" lon="6.46152">
        <ele>1399.4000244141</ele>
        <time>2013-08-21T16:10:22.000Z</time>
      </trkpt>
      <trkpt lat="45.91621" lon="6.46152">
        <ele>1399</ele>
        <time>2013-08-21T16:10:23.000Z</time>
      </trkpt>
      <trkpt lat="45.91614" lon="6.46153">
        <ele>1395.8000488281</ele>
        <time>2013-08-21T16:10:30.000Z</time>
      </trkpt>
      <trkpt lat="45.91611" lon="6.46152">
        <ele>1394.4000244141</ele>
        <time>2013-08-21T16:10:36.000Z</time>
      </trkpt>
      <trkpt lat="45.91607" lon="6.46147">
        <ele>1392.4000244141</ele>
        <time>2013-08-21T16:10:41.000Z</time>
      </trkpt>
      <trkpt lat="45.91603" lon="6.46143">
        <ele>1390.4000244141</ele>
        <time>2013-08-21T16:10:45.000Z</time>
      </trkpt>
      <trkpt lat="45.91594" lon="6.46134">
        <ele>1386.4000244141</ele>
        <time>2013-08-21T16:10:50.000Z</time>
      </trkpt>
      <trkpt lat="45.91587" lon="6.46128">
        <ele>1382.8000488281</ele>
        <time>2013-08-21T16:10:53.000Z</time>
      </trkpt>
      <trkpt lat="45.91578" lon="6.46129">
        <ele>1379.1999511719</ele>
        <time>2013-08-21T16:10:57.000Z</time>
      </trkpt>
      <trkpt lat="45.91571" lon="6.46131">
        <ele>1376.5999755859</ele>
        <time>2013-08-21T16:11:00.000Z</time>
      </trkpt>
      <trkpt lat="45.91564" lon="6.46119">
        <ele>1374.4000244141</ele>
        <time>2013-08-21T16:11:04.000Z</time>
      </trkpt>
      <trkpt lat="45.91558" lon="6.46106">
        <ele>1372.5999755859</ele>
        <time>2013-08-21T16:11:08.000Z</time>
      </trkpt>
      <trkpt lat="45.91553" lon="6.46091">
        <ele>1371.1999511719</ele>
        <time>2013-08-21T16:11:12.000Z</time>
      </trkpt>
      <trkpt lat="45.9155" lon="6.46078">
        <ele>1370.8000488281</ele>
        <time>2013-08-21T16:11:18.000Z</time>
      </trkpt>
      <trkpt lat="45.91552" lon="6.46069">
        <ele>1372.4000244141</ele>
        <time>2013-08-21T16:11:22.000Z</time>
      </trkpt>
      <trkpt lat="45.91552" lon="6.46059">
        <ele>1373.8000488281</ele>
        <time>2013-08-21T16:11:27.000Z</time>
      </trkpt>
      <trkpt lat="45.91553" lon="6.46053">
        <ele>1374.5999755859</ele>
        <time>2013-08-21T16:11:30.000Z</time>
      </trkpt>
      <trkpt lat="45.91551" lon="6.46035">
        <ele>1376</ele>
        <time>2013-08-21T16:11:35.000Z</time>
      </trkpt>
      <trkpt lat="45.91549" lon="6.46019">
        <ele>1377.1999511719</ele>
        <time>2013-08-21T16:11:39.000Z</time>
      </trkpt>
      <trkpt lat="45.91549" lon="6.46002">
        <ele>1379</ele>
        <time>2013-08-21T16:11:44.000Z</time>
      </trkpt>
      <trkpt lat="45.91546" lon="6.45984">
        <ele>1379</ele>
        <time>2013-08-21T16:11:50.000Z</time>
      </trkpt>
      <trkpt lat="45.91545" lon="6.45963">
        <ele>1379.8000488281</ele>
        <time>2013-08-21T16:11:56.000Z</time>
      </trkpt>
      <trkpt lat="45.91544" lon="6.45949">
        <ele>1380.5999755859</ele>
        <time>2013-08-21T16:12:01.000Z</time>
      </trkpt>
      <trkpt lat="45.91544" lon="6.45946">
        <ele>1380.8000488281</ele>
        <time>2013-08-21T16:12:04.000Z</time>
      </trkpt>
      <trkpt lat="45.91543" lon="6.4593">
        <ele>1381.4000244141</ele>
        <time>2013-08-21T16:12:08.000Z</time>
      </trkpt>
      <trkpt lat="45.91543" lon="6.45914">
        <ele>1382.1999511719</ele>
        <time>2013-08-21T16:12:13.000Z</time>
      </trkpt>
      <trkpt lat="45.91543" lon="6.45893">
        <ele>1383.1999511719</ele>
        <time>2013-08-21T16:12:20.000Z</time>
      </trkpt>
      <trkpt lat="45.91543" lon="6.45876">
        <ele>1383.8000488281</ele>
        <time>2013-08-21T16:12:25.000Z</time>
      </trkpt>
      <trkpt lat="45.91542" lon="6.45862">
        <ele>1384</ele>
        <time>2013-08-21T16:12:30.000Z</time>
      </trkpt>
      <trkpt lat="45.91541" lon="6.45843">
        <ele>1384.4000244141</ele>
        <time>2013-08-21T16:12:36.000Z</time>
      </trkpt>
      <trkpt lat="45.9154" lon="6.45827">
        <ele>1384.1999511719</ele>
        <time>2013-08-21T16:12:41.000Z</time>
      </trkpt>
      <trkpt lat="45.91539" lon="6.45814">
        <ele>1383.4000244141</ele>
        <time>2013-08-21T16:12:45.000Z</time>
      </trkpt>
      <trkpt lat="45.91536" lon="6.45796">
        <ele>1382.1999511719</ele>
        <time>2013-08-21T16:12:50.000Z</time>
      </trkpt>
      <trkpt lat="45.91534" lon="6.45777">
        <ele>1381.5999755859</ele>
        <time>2013-08-21T16:12:55.000Z</time>
      </trkpt>
      <trkpt lat="45.91536" lon="6.45763">
        <ele>1382.1999511719</ele>
        <time>2013-08-21T16:12:59.000Z</time>
      </trkpt>
      <trkpt lat="45.91538" lon="6.4574">
        <ele>1383.4000244141</ele>
        <time>2013-08-21T16:13:05.000Z</time>
      </trkpt>
      <trkpt lat="45.91538" lon="6.45722">
        <ele>1383.5999755859</ele>
        <time>2013-08-21T16:13:10.000Z</time>
      </trkpt>
      <trkpt lat="45.91538" lon="6.45707">
        <ele>1383.1999511719</ele>
        <time>2013-08-21T16:13:14.000Z</time>
      </trkpt>
      <trkpt lat="45.91539" lon="6.45687">
        <ele>1383.4000244141</ele>
        <time>2013-08-21T16:13:19.000Z</time>
      </trkpt>
      <trkpt lat="45.9154" lon="6.45665">
        <ele>1384.1999511719</ele>
        <time>2013-08-21T16:13:25.000Z</time>
      </trkpt>
      <trkpt lat="45.91543" lon="6.45642">
        <ele>1386.4000244141</ele>
        <time>2013-08-21T16:13:31.000Z</time>
      </trkpt>
      <trkpt lat="45.91543" lon="6.45625">
        <ele>1387.1999511719</ele>
        <time>2013-08-21T16:13:36.000Z</time>
      </trkpt>
      <trkpt lat="45.91543" lon="6.4561">
        <ele>1388</ele>
        <time>2013-08-21T16:13:42.000Z</time>
      </trkpt>
      <trkpt lat="45.91544" lon="6.45592">
        <ele>1389.1999511719</ele>
        <time>2013-08-21T16:13:47.000Z</time>
      </trkpt>
      <trkpt lat="45.9154" lon="6.45572">
        <ele>1387.8000488281</ele>
        <time>2013-08-21T16:13:52.000Z</time>
      </trkpt>
      <trkpt lat="45.91538" lon="6.45554">
        <ele>1387</ele>
        <time>2013-08-21T16:13:57.000Z</time>
      </trkpt>
      <trkpt lat="45.91538" lon="6.45546">
        <ele>1387.1999511719</ele>
        <time>2013-08-21T16:14:00.000Z</time>
      </trkpt>
      <trkpt lat="45.9154" lon="6.45532">
        <ele>1388.1999511719</ele>
        <time>2013-08-21T16:14:04.000Z</time>
      </trkpt>
      <trkpt lat="45.91542" lon="6.4551">
        <ele>1389.4000244141</ele>
        <time>2013-08-21T16:14:11.000Z</time>
      </trkpt>
      <trkpt lat="45.91544" lon="6.45506">
        <ele>1390.1999511719</ele>
        <time>2013-08-21T16:14:13.000Z</time>
      </trkpt>
      <trkpt lat="45.91553" lon="6.45495">
        <ele>1394.8000488281</ele>
        <time>2013-08-21T16:14:20.000Z</time>
      </trkpt>
      <trkpt lat="45.91553" lon="6.45485">
        <ele>1395.5999755859</ele>
        <time>2013-08-21T16:14:24.000Z</time>
      </trkpt>
      <trkpt lat="45.91549" lon="6.45475">
        <ele>1394.5999755859</ele>
        <time>2013-08-21T16:14:29.000Z</time>
      </trkpt>
      <trkpt lat="45.91547" lon="6.45463">
        <ele>1394.5999755859</ele>
        <time>2013-08-21T16:14:35.000Z</time>
      </trkpt>
      <trkpt lat="45.91549" lon="6.45449">
        <ele>1396.8000488281</ele>
        <time>2013-08-21T16:14:40.000Z</time>
      </trkpt>
      <trkpt lat="45.91549" lon="6.45434">
        <ele>1398.1999511719</ele>
        <time>2013-08-21T16:14:45.000Z</time>
      </trkpt>
      <trkpt lat="45.91548" lon="6.45432">
        <ele>1398.1999511719</ele>
        <time>2013-08-21T16:14:46.000Z</time>
      </trkpt>
      <trkpt lat="45.91542" lon="6.45419">
        <ele>1396.1999511719</ele>
        <time>2013-08-21T16:14:53.000Z</time>
      </trkpt>
      <trkpt lat="45.91536" lon="6.45405">
        <ele>1396.1999511719</ele>
        <time>2013-08-21T16:14:58.000Z</time>
      </trkpt>
      <trkpt lat="45.91535" lon="6.45397">
        <ele>1397.4000244141</ele>
        <time>2013-08-21T16:15:00.000Z</time>
      </trkpt>
      <trkpt lat="45.91531" lon="6.45383">
        <ele>1398.5999755859</ele>
        <time>2013-08-21T16:15:05.000Z</time>
      </trkpt>
      <trkpt lat="45.91529" lon="6.45367">
        <ele>1400.5999755859</ele>
        <time>2013-08-21T16:15:09.000Z</time>
      </trkpt>
      <trkpt lat="45.91527" lon="6.45357">
        <ele>1401.4000244141</ele>
        <time>2013-08-21T16:15:12.000Z</time>
      </trkpt>
      <trkpt lat="45.91521" lon="6.45334">
        <ele>1402.8000488281</ele>
        <time>2013-08-21T16:15:18.000Z</time>
      </trkpt>
      <trkpt lat="45.91516" lon="6.45316">
        <ele>1404</ele>
        <time>2013-08-21T16:15:23.000Z</time>
      </trkpt>
      <trkpt lat="45.91513" lon="6.45304">
        <ele>1405.4000244141</ele>
        <time>2013-08-21T16:15:27.000Z</time>
      </trkpt>
      <trkpt lat="45.91508" lon="6.45285">
        <ele>1406.5999755859</ele>
        <time>2013-08-21T16:15:33.000Z</time>
      </trkpt>
      <trkpt lat="45.91503" lon="6.45261">
        <ele>1409.4000244141</ele>
        <time>2013-08-21T16:15:40.000Z</time>
      </trkpt>
      <trkpt lat="45.91498" lon="6.45242">
        <ele>1408.4000244141</ele>
        <time>2013-08-21T16:15:46.000Z</time>
      </trkpt>
      <trkpt lat="45.91494" lon="6.45227">
        <ele>1405.8000488281</ele>
        <time>2013-08-21T16:15:52.000Z</time>
      </trkpt>
      <trkpt lat="45.91493" lon="6.45213">
        <ele>1405.1999511719</ele>
        <time>2013-08-21T16:15:57.000Z</time>
      </trkpt>
      <trkpt lat="45.91492" lon="6.45199">
        <ele>1404.4000244141</ele>
        <time>2013-08-21T16:16:02.000Z</time>
      </trkpt>
      <trkpt lat="45.91492" lon="6.45187">
        <ele>1404</ele>
        <time>2013-08-21T16:16:08.000Z</time>
      </trkpt>
      <trkpt lat="45.91492" lon="6.45174">
        <ele>1404.1999511719</ele>
        <time>2013-08-21T16:16:14.000Z</time>
      </trkpt>
      <trkpt lat="45.91492" lon="6.45154">
        <ele>1402</ele>
        <time>2013-08-21T16:16:20.000Z</time>
      </trkpt>
      <trkpt lat="45.91492" lon="6.45139">
        <ele>1399.1999511719</ele>
        <time>2013-08-21T16:16:26.000Z</time>
      </trkpt>
      <trkpt lat="45.91494" lon="6.45125">
        <ele>1398.5999755859</ele>
        <time>2013-08-21T16:16:31.000Z</time>
      </trkpt>
      <trkpt lat="45.915" lon="6.45108">
        <ele>1398.1999511719</ele>
        <time>2013-08-21T16:16:36.000Z</time>
      </trkpt>
      <trkpt lat="45.91509" lon="6.4509">
        <ele>1398.8000488281</ele>
        <time>2013-08-21T16:16:41.000Z</time>
      </trkpt>
      <trkpt lat="45.91519" lon="6.45075">
        <ele>1401.4000244141</ele>
        <time>2013-08-21T16:16:46.000Z</time>
      </trkpt>
      <trkpt lat="45.91531" lon="6.4506">
        <ele>1405.1999511719</ele>
        <time>2013-08-21T16:16:52.000Z</time>
      </trkpt>
      <trkpt lat="45.91537" lon="6.45047">
        <ele>1406.5999755859</ele>
        <time>2013-08-21T16:16:56.000Z</time>
      </trkpt>
      <trkpt lat="45.91536" lon="6.4503">
        <ele>1405.1999511719</ele>
        <time>2013-08-21T16:17:01.000Z</time>
      </trkpt>
      <trkpt lat="45.91528" lon="6.45014">
        <ele>1401.8000488281</ele>
        <time>2013-08-21T16:17:07.000Z</time>
      </trkpt>
      <trkpt lat="45.91519" lon="6.45005">
        <ele>1398.5999755859</ele>
        <time>2013-08-21T16:17:12.000Z</time>
      </trkpt>
      <trkpt lat="45.91507" lon="6.44998">
        <ele>1395</ele>
        <time>2013-08-21T16:17:18.000Z</time>
      </trkpt>
      <trkpt lat="45.91496" lon="6.44991">
        <ele>1391.5999755859</ele>
        <time>2013-08-21T16:17:24.000Z</time>
      </trkpt>
      <trkpt lat="45.91494" lon="6.44989">
        <ele>1391</ele>
        <time>2013-08-21T16:17:25.000Z</time>
      </trkpt>
      <trkpt lat="45.91487" lon="6.44977">
        <ele>1389</ele>
        <time>2013-08-21T16:17:30.000Z</time>
      </trkpt>
      <trkpt lat="45.91482" lon="6.44965">
        <ele>1387.4000244141</ele>
        <time>2013-08-21T16:17:36.000Z</time>
      </trkpt>
      <trkpt lat="45.91473" lon="6.44952">
        <ele>1385</ele>
        <time>2013-08-21T16:17:41.000Z</time>
      </trkpt>
      <trkpt lat="45.91472" lon="6.44939">
        <ele>1385.1999511719</ele>
        <time>2013-08-21T16:17:45.000Z</time>
      </trkpt>
      <trkpt lat="45.91474" lon="6.44922">
        <ele>1386</ele>
        <time>2013-08-21T16:17:49.000Z</time>
      </trkpt>
      <trkpt lat="45.91476" lon="6.44915">
        <ele>1386.8000488281</ele>
        <time>2013-08-21T16:17:51.000Z</time>
      </trkpt>
      <trkpt lat="45.9148" lon="6.44895">
        <ele>1388.1999511719</ele>
        <time>2013-08-21T16:17:57.000Z</time>
      </trkpt>
      <trkpt lat="45.91483" lon="6.44879">
        <ele>1389.4000244141</ele>
        <time>2013-08-21T16:18:01.000Z</time>
      </trkpt>
      <trkpt lat="45.91486" lon="6.4486">
        <ele>1390.5999755859</ele>
        <time>2013-08-21T16:18:06.000Z</time>
      </trkpt>
      <trkpt lat="45.9149" lon="6.4484">
        <ele>1392.4000244141</ele>
        <time>2013-08-21T16:18:12.000Z</time>
      </trkpt>
      <trkpt lat="45.91495" lon="6.44823">
        <ele>1393.8000488281</ele>
        <time>2013-08-21T16:18:17.000Z</time>
      </trkpt>
      <trkpt lat="45.91503" lon="6.44797">
        <ele>1395.1999511719</ele>
        <time>2013-08-21T16:18:24.000Z</time>
      </trkpt>
      <trkpt lat="45.91505" lon="6.44782">
        <ele>1395.1999511719</ele>
        <time>2013-08-21T16:18:28.000Z</time>
      </trkpt>
      <trkpt lat="45.91507" lon="6.44761">
        <ele>1394.8000488281</ele>
        <time>2013-08-21T16:18:34.000Z</time>
      </trkpt>
      <trkpt lat="45.91507" lon="6.44739">
        <ele>1394</ele>
        <time>2013-08-21T16:18:40.000Z</time>
      </trkpt>
      <trkpt lat="45.91504" lon="6.44719">
        <ele>1392.1999511719</ele>
        <time>2013-08-21T16:18:46.000Z</time>
      </trkpt>
      <trkpt lat="45.91499" lon="6.44702">
        <ele>1390</ele>
        <time>2013-08-21T16:18:51.000Z</time>
      </trkpt>
      <trkpt lat="45.91494" lon="6.4469">
        <ele>1388.5999755859</ele>
        <time>2013-08-21T16:18:55.000Z</time>
      </trkpt>
      <trkpt lat="45.91491" lon="6.4468">
        <ele>1387.8000488281</ele>
        <time>2013-08-21T16:18:58.000Z</time>
      </trkpt>
      <trkpt lat="45.91483" lon="6.44664">
        <ele>1385.8000488281</ele>
        <time>2013-08-21T16:19:03.000Z</time>
      </trkpt>
      <trkpt lat="45.91475" lon="6.4465">
        <ele>1383.8000488281</ele>
        <time>2013-08-21T16:19:08.000Z</time>
      </trkpt>
      <trkpt lat="45.91473" lon="6.44648">
        <ele>1383.1999511719</ele>
        <time>2013-08-21T16:19:09.000Z</time>
      </trkpt>
      <trkpt lat="45.91471" lon="6.44643">
        <ele>1382.5999755859</ele>
        <time>2013-08-21T16:19:11.000Z</time>
      </trkpt>
      <trkpt lat="45.91465" lon="6.44644">
        <ele>1381.1999511719</ele>
        <time>2013-08-21T16:19:15.000Z</time>
      </trkpt>
      <trkpt lat="45.91456" lon="6.44647">
        <ele>1379</ele>
        <time>2013-08-21T16:19:19.000Z</time>
      </trkpt>
      <trkpt lat="45.91449" lon="6.44648">
        <ele>1377.1999511719</ele>
        <time>2013-08-21T16:19:22.000Z</time>
      </trkpt>
      <trkpt lat="45.91433" lon="6.44647">
        <ele>1373.1999511719</ele>
        <time>2013-08-21T16:19:28.000Z</time>
      </trkpt>
      <trkpt lat="45.91423" lon="6.44647">
        <ele>1370.5999755859</ele>
        <time>2013-08-21T16:19:32.000Z</time>
      </trkpt>
      <trkpt lat="45.91414" lon="6.44657">
        <ele>1368.8000488281</ele>
        <time>2013-08-21T16:19:37.000Z</time>
      </trkpt>
      <trkpt lat="45.91407" lon="6.44671">
        <ele>1366.8000488281</ele>
        <time>2013-08-21T16:19:43.000Z</time>
      </trkpt>
      <trkpt lat="45.91401" lon="6.44683">
        <ele>1365.1999511719</ele>
        <time>2013-08-21T16:19:47.000Z</time>
      </trkpt>
      <trkpt lat="45.91395" lon="6.44694">
        <ele>1363.5999755859</ele>
        <time>2013-08-21T16:19:51.000Z</time>
      </trkpt>
      <trkpt lat="45.91389" lon="6.44705">
        <ele>1361.5999755859</ele>
        <time>2013-08-21T16:19:55.000Z</time>
      </trkpt>
      <trkpt lat="45.91381" lon="6.44712">
        <ele>1359.5999755859</ele>
        <time>2013-08-21T16:19:59.000Z</time>
      </trkpt>
      <trkpt lat="45.91374" lon="6.44719">
        <ele>1357.8000488281</ele>
        <time>2013-08-21T16:20:03.000Z</time>
      </trkpt>
      <trkpt lat="45.91367" lon="6.44725">
        <ele>1356</ele>
        <time>2013-08-21T16:20:07.000Z</time>
      </trkpt>
      <trkpt lat="45.91364" lon="6.4473">
        <ele>1355.1999511719</ele>
        <time>2013-08-21T16:20:10.000Z</time>
      </trkpt>
      <trkpt lat="45.91353" lon="6.44739">
        <ele>1352.5999755859</ele>
        <time>2013-08-21T16:20:16.000Z</time>
      </trkpt>
      <trkpt lat="45.91343" lon="6.44749">
        <ele>1350.4000244141</ele>
        <time>2013-08-21T16:20:22.000Z</time>
      </trkpt>
      <trkpt lat="45.91341" lon="6.44753">
        <ele>1349.8000488281</ele>
        <time>2013-08-21T16:20:24.000Z</time>
      </trkpt>
      <trkpt lat="45.91332" lon="6.44759">
        <ele>1347</ele>
        <time>2013-08-21T16:20:29.000Z</time>
      </trkpt>
      <trkpt lat="45.91327" lon="6.4476">
        <ele>1345.1999511719</ele>
        <time>2013-08-21T16:20:31.000Z</time>
      </trkpt>
      <trkpt lat="45.91318" lon="6.44758">
        <ele>1341.5999755859</ele>
        <time>2013-08-21T16:20:37.000Z</time>
      </trkpt>
      <trkpt lat="45.91306" lon="6.44754">
        <ele>1337.1999511719</ele>
        <time>2013-08-21T16:20:42.000Z</time>
      </trkpt>
      <trkpt lat="45.91297" lon="6.44757">
        <ele>1333.5999755859</ele>
        <time>2013-08-21T16:20:46.000Z</time>
      </trkpt>
      <trkpt lat="45.91283" lon="6.44763">
        <ele>1328.1999511719</ele>
        <time>2013-08-21T16:20:53.000Z</time>
      </trkpt>
      <trkpt lat="45.91275" lon="6.44769">
        <ele>1324.8000488281</ele>
        <time>2013-08-21T16:20:59.000Z</time>
      </trkpt>
      <trkpt lat="45.91274" lon="6.4477">
        <ele>1324.4000244141</ele>
        <time>2013-08-21T16:21:01.000Z</time>
      </trkpt>
      <trkpt lat="45.91268" lon="6.44772">
        <ele>1321.8000488281</ele>
        <time>2013-08-21T16:21:06.000Z</time>
      </trkpt>
      <trkpt lat="45.91264" lon="6.44765">
        <ele>1320.5999755859</ele>
        <time>2013-08-21T16:21:10.000Z</time>
      </trkpt>
      <trkpt lat="45.91262" lon="6.44764">
        <ele>1320</ele>
        <time>2013-08-21T16:21:11.000Z</time>
      </trkpt>
      <trkpt lat="45.91258" lon="6.44762">
        <ele>1318.4000244141</ele>
        <time>2013-08-21T16:21:14.000Z</time>
      </trkpt>
      <trkpt lat="45.91248" lon="6.4476">
        <ele>1314.8000488281</ele>
        <time>2013-08-21T16:21:19.000Z</time>
      </trkpt>
      <trkpt lat="45.91243" lon="6.44762">
        <ele>1313.1999511719</ele>
        <time>2013-08-21T16:21:21.000Z</time>
      </trkpt>
      <trkpt lat="45.91239" lon="6.44764">
        <ele>1311.5999755859</ele>
        <time>2013-08-21T16:21:23.000Z</time>
      </trkpt>
      <trkpt lat="45.91235" lon="6.44777">
        <ele>1309.5999755859</ele>
        <time>2013-08-21T16:21:27.000Z</time>
      </trkpt>
      <trkpt lat="45.91244" lon="6.44795">
        <ele>1311.5999755859</ele>
        <time>2013-08-21T16:21:33.000Z</time>
      </trkpt>
      <trkpt lat="45.91249" lon="6.44809">
        <ele>1312.5999755859</ele>
        <time>2013-08-21T16:21:37.000Z</time>
      </trkpt>
      <trkpt lat="45.91253" lon="6.44823">
        <ele>1313.8000488281</ele>
        <time>2013-08-21T16:21:41.000Z</time>
      </trkpt>
      <trkpt lat="45.91262" lon="6.44845">
        <ele>1315.5999755859</ele>
        <time>2013-08-21T16:21:47.000Z</time>
      </trkpt>
      <trkpt lat="45.91267" lon="6.44864">
        <ele>1316</ele>
        <time>2013-08-21T16:21:52.000Z</time>
      </trkpt>
      <trkpt lat="45.91272" lon="6.44879">
        <ele>1316.1999511719</ele>
        <time>2013-08-21T16:21:56.000Z</time>
      </trkpt>
      <trkpt lat="45.91274" lon="6.44893">
        <ele>1316</ele>
        <time>2013-08-21T16:22:00.000Z</time>
      </trkpt>
      <trkpt lat="45.91279" lon="6.44912">
        <ele>1316</ele>
        <time>2013-08-21T16:22:05.000Z</time>
      </trkpt>
      <trkpt lat="45.91284" lon="6.44922">
        <ele>1317.4000244141</ele>
        <time>2013-08-21T16:22:09.000Z</time>
      </trkpt>
    </trkseg>
  </trk>
</gpx>